Darstellungsparameter: Aktuell verwendete Einstellungen:
Skalierung der Graphiken ... ?
xyx+y,   Skalierungsfaktor:      Skalierung: Modus: x, Faktor: 1
Darstellungszeitraum ... ?
Vom - - bis: - -   Zeitraum: 03.10.2019 - 08.10.2019
Min/Max/Avg-Anzeige ... ?
Zeige MMA aktuell
Zeige MMA Monat
Zeige MMA alles
Zeige --A aktuell
Zeige --A Monat
Zeige --A alles
Keine MMA-Anzeige
MMA:
Minimum Maximum Average (ber die Originaldaten)
MMA-Basis: 23.02.2003 - 09.10.2019
Quicknavigation für Darstellung... ?
Tage:      1T, 2T, 3T, 5T -1T -2T -3T -5T +1T +2T +3T +5T
Wochen: 1W, 2W, 3W -1W -2W -3W +1W +2W +3W
Monate: 1M, 3M, 6M -1M -3M -6M +1M +3M +6M
Jahre:    1J, 3J, 5J, 10J -1J -3J -5J -10J +1J +3J +5J +10J
Nutze für die Darstellung ... ?
Originaldaten oder Mittelwerte auf ...
Stundenbasis Tagesbasis Wochenbasis
Monatsbasis Jahresbasis      Datenbasis: Original-Daten
Darstellen als:
Statistik (Auto) Statistik J:M      Darstellung:
Zur Graphik,    zurück zur Übersicht aller Sensoren.
 
Tabellarische Datenbersicht: ?
 
Sensor: Nr:Datum:Temp:Abs-Feuchte:Windchill:Wind:
Aussen-T/F 1 03-10-2019 00:00:00 9.2 C 7.59 g/m*3 9.2 C 3.2 km/h
2 03-10-2019 00:05:00 9.3 C 7.64 g/m*3 9.3 C 4.8 km/h
3 03-10-2019 00:10:00 9.3 C 7.64 g/m*3 9.3 C 3.2 km/h
4 03-10-2019 00:15:00 9.3 C 7.64 g/m*3 9.3 C 3.2 km/h
5 03-10-2019 00:20:00 9.3 C 7.64 g/m*3 8.56 C 6.4 km/h
6 03-10-2019 00:25:00 9.3 C 7.64 g/m*3 9.3 C 1.6 km/h
7 03-10-2019 00:30:00 9.4 C 7.69 g/m*3 9.4 C 3.2 km/h
8 03-10-2019 00:35:00 9.4 C 7.6 g/m*3 7.97 C 9.7 km/h
9 03-10-2019 00:40:00 9.4 C 7.69 g/m*3 7.97 C 9.7 km/h
10 03-10-2019 00:45:00 9.4 C 7.69 g/m*3 9.4 C 4.8 km/h
11 03-10-2019 00:50:00 9.4 C 7.78 g/m*3 9.4 C 1.6 km/h
12 03-10-2019 00:55:00 9.3 C 7.73 g/m*3 9.3 C 1.6 km/h
13 03-10-2019 01:00:00 9.3 C 7.82 g/m*3 9.3 C 3.2 km/h
14 03-10-2019 01:05:00 9.3 C 7.82 g/m*3 9.3 C 3.2 km/h
15 03-10-2019 01:10:00 9.3 C 7.73 g/m*3 9.3 C 3.2 km/h
16 03-10-2019 01:15:00 9.3 C 7.73 g/m*3 8.16 C 8.1 km/h
17 03-10-2019 01:20:00 9.3 C 7.73 g/m*3 9.3 C 4.8 km/h
18 03-10-2019 01:25:00 9.2 C 7.77 g/m*3 9.2 C 3.2 km/h
19 03-10-2019 01:30:00 9.2 C 7.77 g/m*3 9.2 C 4.8 km/h
20 03-10-2019 01:35:00 9.2 C 7.77 g/m*3 8.45 C 6.4 km/h
21 03-10-2019 01:40:00 9.2 C 7.68 g/m*3 9.2 C 3.2 km/h
22 03-10-2019 01:45:00 9.2 C 7.68 g/m*3 9.2 C 3.2 km/h
23 03-10-2019 01:50:00 9.3 C 7.73 g/m*3 9.3 C 4.8 km/h
24 03-10-2019 01:55:00 9.3 C 7.73 g/m*3 8.16 C 8.1 km/h
25 03-10-2019 02:00:00 9.3 C 7.73 g/m*3 9.3 C 3.2 km/h
Sensor: Nr:Datum:Temp:Abs-Feuchte:Windchill:Wind:
Aussen-T/F 26 03-10-2019 02:05:00 9.3 C 7.73 g/m*3 8.56 C 6.4 km/h
27 03-10-2019 02:10:00 9.3 C 7.73 g/m*3 9.3 C 4.8 km/h
28 03-10-2019 02:15:00 9.3 C 7.73 g/m*3 9.3 C 3.2 km/h
29 03-10-2019 02:20:00 9.2 C 7.68 g/m*3 9.2 C 0 km/h
30 03-10-2019 02:25:00 9.2 C 7.68 g/m*3 8.45 C 6.4 km/h
31 03-10-2019 02:30:00 9.2 C 7.77 g/m*3 9.2 C 1.6 km/h
32 03-10-2019 02:35:00 9.2 C 7.77 g/m*3 9.2 C 1.6 km/h
33 03-10-2019 02:40:00 9.2 C 7.77 g/m*3 9.2 C 4.8 km/h
34 03-10-2019 02:45:00 9.2 C 7.77 g/m*3 8.45 C 6.4 km/h
35 03-10-2019 02:50:00 9.1 C 7.72 g/m*3 9.1 C 3.2 km/h
36 03-10-2019 02:55:00 9.1 C 7.72 g/m*3 9.1 C 3.2 km/h
37 03-10-2019 03:00:00 8.9 C 7.62 g/m*3 8.9 C 3.2 km/h
38 03-10-2019 03:05:00 8.9 C 7.62 g/m*3 8.9 C 4.8 km/h
39 03-10-2019 03:10:00 8.8 C 7.57 g/m*3 8.8 C 1.6 km/h
40 03-10-2019 03:15:00 8.7 C 7.52 g/m*3 8.7 C 4.8 km/h
41 03-10-2019 03:20:00 8.7 C 7.61 g/m*3 8.7 C 1.6 km/h
42 03-10-2019 03:25:00 8.6 C 7.56 g/m*3 8.6 C 0 km/h
43 03-10-2019 03:30:00 8.4 C 7.47 g/m*3 8.4 C 0 km/h
44 03-10-2019 03:35:00 8.4 C 7.47 g/m*3 8.4 C 0 km/h
45 03-10-2019 03:40:00 8.3 C 7.42 g/m*3 8.3 C 0 km/h
46 03-10-2019 03:45:00 8.2 C 7.45 g/m*3 7.29 C 6.4 km/h
47 03-10-2019 03:50:00 8.2 C 7.45 g/m*3 8.2 C 0 km/h
48 03-10-2019 03:55:00 8.2 C 7.45 g/m*3 8.2 C 0 km/h
49 03-10-2019 04:00:00 8 C 7.36 g/m*3 8 C 0 km/h
50 03-10-2019 04:05:00 7.9 C 7.39 g/m*3 7.9 C 3.2 km/h
Sensor: Nr:Datum:Temp:Abs-Feuchte:Windchill:Wind:
Aussen-T/F 51 03-10-2019 04:10:00 7.8 C 7.35 g/m*3 7.8 C 0 km/h
52 03-10-2019 04:15:00 7.7 C 7.3 g/m*3 7.7 C 1.6 km/h
53 03-10-2019 04:20:00 7.7 C 7.3 g/m*3 7.7 C 4.8 km/h
54 03-10-2019 04:25:00 7.6 C 7.25 g/m*3 7.6 C 0 km/h
55 03-10-2019 04:30:00 7.6 C 7.25 g/m*3 7.6 C 0 km/h
56 03-10-2019 04:35:00 7.5 C 7.28 g/m*3 7.5 C 0 km/h
57 03-10-2019 04:40:00 7.5 C 7.28 g/m*3 7.5 C 3.2 km/h
58 03-10-2019 04:45:00 7.5 C 7.28 g/m*3 7.5 C 1.6 km/h
59 03-10-2019 04:50:00 7.4 C 7.24 g/m*3 7.4 C 0 km/h
60 03-10-2019 04:55:00 7.4 C 7.24 g/m*3 7.4 C 1.6 km/h
61 03-10-2019 05:00:00 7.4 C 7.24 g/m*3 7.4 C 0 km/h
62 03-10-2019 05:05:00 7.4 C 7.32 g/m*3 7.4 C 3.2 km/h
63 03-10-2019 05:10:00 7.6 C 7.41 g/m*3 7.6 C 4.8 km/h
64 03-10-2019 05:15:00 7.8 C 7.51 g/m*3 6.83 C 6.4 km/h
65 03-10-2019 05:20:00 7.9 C 7.56 g/m*3 7.9 C 3.2 km/h
66 03-10-2019 05:25:00 8 C 7.52 g/m*3 8 C 4.8 km/h
67 03-10-2019 05:30:00 8.1 C 7.57 g/m*3 8.1 C 1.6 km/h
68 03-10-2019 05:35:00 8.2 C 7.62 g/m*3 8.2 C 4.8 km/h
69 03-10-2019 05:40:00 8.2 C 7.54 g/m*3 6.54 C 9.7 km/h
70 03-10-2019 05:45:00 8.3 C 7.59 g/m*3 6.99 C 8.1 km/h
71 03-10-2019 05:50:00 8.2 C 7.54 g/m*3 8.2 C 4.8 km/h
72 03-10-2019 05:55:00 8.2 C 7.54 g/m*3 8.2 C 1.6 km/h
73 03-10-2019 06:00:00 8 C 7.44 g/m*3 8 C 4.8 km/h
74 03-10-2019 06:05:00 7.8 C 7.35 g/m*3 7.8 C 0 km/h
75 03-10-2019 06:10:00 7.7 C 7.3 g/m*3 7.7 C 0 km/h
Sensor: Nr:Datum:Temp:Abs-Feuchte:Windchill:Wind:
Aussen-T/F 76 03-10-2019 06:15:00 7.6 C 7.25 g/m*3 7.6 C 0 km/h
77 03-10-2019 06:20:00 7.5 C 7.28 g/m*3 7.5 C 0 km/h
78 03-10-2019 06:25:00 7.4 C 7.24 g/m*3 7.4 C 1.6 km/h
79 03-10-2019 06:30:00 7.3 C 7.19 g/m*3 7.3 C 3.2 km/h
80 03-10-2019 06:35:00 7.3 C 7.19 g/m*3 7.3 C 0 km/h
81 03-10-2019 06:40:00 7.2 C 7.22 g/m*3 7.2 C 0 km/h
82 03-10-2019 06:45:00 7.2 C 7.22 g/m*3 7.2 C 1.6 km/h
83 03-10-2019 06:50:00 7.2 C 7.22 g/m*3 7.2 C 1.6 km/h
84 03-10-2019 06:55:00 7.2 C 7.22 g/m*3 7.2 C 1.6 km/h
85 03-10-2019 07:00:00 7.2 C 7.22 g/m*3 7.2 C 1.6 km/h
86 03-10-2019 07:05:00 7.2 C 7.3 g/m*3 7.2 C 1.6 km/h
87 03-10-2019 07:10:00 7.2 C 7.3 g/m*3 7.2 C 1.6 km/h
88 03-10-2019 07:15:00 7.2 C 7.3 g/m*3 7.2 C 1.6 km/h
89 03-10-2019 07:20:00 7.2 C 7.3 g/m*3 7.2 C 3.2 km/h
90 03-10-2019 07:25:00 7.2 C 7.3 g/m*3 7.2 C 4.8 km/h
91 03-10-2019 07:30:00 7.2 C 7.3 g/m*3 7.2 C 0 km/h
92 03-10-2019 07:35:00 7.2 C 7.3 g/m*3 7.2 C 3.2 km/h
93 03-10-2019 07:40:00 7.2 C 7.3 g/m*3 7.2 C 1.6 km/h
94 03-10-2019 07:45:00 7.2 C 7.3 g/m*3 7.2 C 0 km/h
95 03-10-2019 07:50:00 7.2 C 7.3 g/m*3 7.2 C 0 km/h
96 03-10-2019 07:55:00 7.2 C 7.3 g/m*3 7.2 C 0 km/h
97 03-10-2019 08:00:00 7.2 C 7.3 g/m*3 7.2 C 1.6 km/h
98 03-10-2019 08:05:00 7.3 C 7.35 g/m*3 7.3 C 1.6 km/h
99 03-10-2019 08:10:00 7.3 C 7.35 g/m*3 7.3 C 4.8 km/h
100 03-10-2019 08:15:00 7.4 C 7.4 g/m*3 7.4 C 0 km/h
Sensor: Nr:Datum:Temp:Abs-Feuchte:Windchill:Wind:
Aussen-T/F 101 03-10-2019 08:20:00 7.5 C 7.44 g/m*3 7.5 C 1.6 km/h
102 03-10-2019 08:25:00 7.6 C 7.49 g/m*3 6.16 C 8.1 km/h
103 03-10-2019 08:30:00 7.7 C 7.54 g/m*3 7.7 C 4.8 km/h
104 03-10-2019 08:35:00 7.9 C 7.56 g/m*3 6.18 C 9.7 km/h
105 03-10-2019 08:40:00 8 C 7.52 g/m*3 6.64 C 8.1 km/h
106 03-10-2019 08:45:00 8.2 C 7.62 g/m*3 6.54 C 9.7 km/h
107 03-10-2019 08:50:00 8.3 C 7.67 g/m*3 7.41 C 6.4 km/h
108 03-10-2019 08:55:00 8.5 C 7.68 g/m*3 8.5 C 3.2 km/h
109 03-10-2019 09:00:00 8.7 C 7.78 g/m*3 7.87 C 6.4 km/h
110 03-10-2019 09:05:00 8.9 C 7.8 g/m*3 7.69 C 8.1 km/h
111 03-10-2019 09:10:00 9 C 7.76 g/m*3 7.49 C 9.7 km/h
112 03-10-2019 09:15:00 9.1 C 7.81 g/m*3 8.33 C 6.4 km/h
113 03-10-2019 09:20:00 9.2 C 7.86 g/m*3 8.45 C 6.4 km/h
114 03-10-2019 09:25:00 9.3 C 7.91 g/m*3 8.16 C 8.1 km/h
115 03-10-2019 09:30:00 9.5 C 7.92 g/m*3 8.4 C 8.1 km/h
116 03-10-2019 09:35:00 9.6 C 7.97 g/m*3 8.52 C 8.1 km/h
117 03-10-2019 09:40:00 9.7 C 8.02 g/m*3 9.7 C 4.8 km/h
118 03-10-2019 09:45:00 9.7 C 8.02 g/m*3 9.7 C 3.2 km/h
119 03-10-2019 09:50:00 9.7 C 7.93 g/m*3 9.02 C 6.4 km/h
120 03-10-2019 09:55:00 9.7 C 8.02 g/m*3 9.7 C 4.8 km/h
121 03-10-2019 10:00:00 9.8 C 7.98 g/m*3 7.94 C 12.9 km/h
122 03-10-2019 10:05:00 9.9 C 8.03 g/m*3 8.87 C 8.1 km/h
123 03-10-2019 10:10:00 10 C 7.99 g/m*3 8.99 C 8.1 km/h
124 03-10-2019 10:15:00 10.1 C 8.13 g/m*3 10.1 C 4.8 km/h
125 03-10-2019 10:20:00 10.1 C 8.13 g/m*3 10.1 C 3.2 km/h
Sensor: Nr:Datum:Temp:Abs-Feuchte:Windchill:Wind:
Aussen-T/F 126 03-10-2019 10:25:00 10.2 C 8.18 g/m*3 9.22 C 8.1 km/h
127 03-10-2019 10:30:00 10.2 C 8.18 g/m*3 9.6 C 6.4 km/h
128 03-10-2019 10:35:00 10.3 C 8.24 g/m*3 9.72 C 6.4 km/h
129 03-10-2019 10:40:00 10.6 C 8.39 g/m*3 10.6 C 4.8 km/h
130 03-10-2019 10:45:00 10.8 C 8.4 g/m*3 9.64 C 9.7 km/h
131 03-10-2019 10:50:00 11.1 C 8.56 g/m*3 11.1 C 11.3 km/h
132 03-10-2019 10:55:00 11.3 C 8.57 g/m*3 11.3 C 11.3 km/h
133 03-10-2019 11:00:00 11.5 C 8.68 g/m*3 11.5 C 4.8 km/h
134 03-10-2019 11:05:00 11.7 C 8.58 g/m*3 11.7 C 9.7 km/h
135 03-10-2019 11:10:00 11.8 C 8.63 g/m*3 11.8 C 6.4 km/h
136 03-10-2019 11:15:00 12.1 C 8.79 g/m*3 12.1 C 9.7 km/h
137 03-10-2019 11:20:00 12.2 C 8.74 g/m*3 12.2 C 14.5 km/h
138 03-10-2019 11:25:00 12.3 C 8.8 g/m*3 12.3 C 6.4 km/h
139 03-10-2019 11:30:00 12.4 C 8.74 g/m*3 12.4 C 6.4 km/h
140 03-10-2019 11:35:00 12.4 C 8.85 g/m*3 12.4 C 6.4 km/h
141 03-10-2019 11:40:00 12.6 C 8.85 g/m*3 12.6 C 9.7 km/h
142 03-10-2019 11:45:00 12.6 C 8.85 g/m*3 12.6 C 8.1 km/h
143 03-10-2019 11:50:00 12.6 C 8.74 g/m*3 12.6 C 9.7 km/h
144 03-10-2019 11:55:00 12.6 C 8.74 g/m*3 12.6 C 12.9 km/h
145 03-10-2019 12:00:00 12.6 C 8.85 g/m*3 12.6 C 11.3 km/h
146 03-10-2019 12:05:00 12.7 C 8.79 g/m*3 12.7 C 12.9 km/h
147 03-10-2019 12:10:00 12.7 C 8.79 g/m*3 12.7 C 11.3 km/h
148 03-10-2019 12:15:00 12.7 C 8.91 g/m*3 12.7 C 6.4 km/h
149 03-10-2019 12:20:00 12.7 C 8.91 g/m*3 12.7 C 9.7 km/h
150 03-10-2019 12:25:00 12.5 C 9.02 g/m*3 12.5 C 6.4 km/h
Sensor: Nr:Datum:Temp:Abs-Feuchte:Windchill:Wind:
Aussen-T/F 151 03-10-2019 12:30:00 12.5 C 9.13 g/m*3 12.5 C 3.2 km/h
152 03-10-2019 12:35:00 12.5 C 9.02 g/m*3 12.5 C 1.6 km/h
153 03-10-2019 12:40:00 12.5 C 9.02 g/m*3 12.5 C 4.8 km/h
154 03-10-2019 12:45:00 12.4 C 9.07 g/m*3 12.4 C 4.8 km/h
155 03-10-2019 12:50:00 12.4 C 9.29 g/m*3 12.4 C 1.6 km/h
156 03-10-2019 12:55:00 12.5 C 9.46 g/m*3 12.5 C 0 km/h
157 03-10-2019 13:00:00 12.5 C 9.57 g/m*3 12.5 C 0 km/h
158 03-10-2019 13:05:00 12.4 C 9.4 g/m*3 12.4 C 0 km/h
159 03-10-2019 13:10:00 12.4 C 9.51 g/m*3 12.4 C 0 km/h
160 03-10-2019 13:15:00 12.4 C 9.51 g/m*3 12.4 C 0 km/h
161 03-10-2019 13:20:00 12.3 C 9.56 g/m*3 12.3 C 0 km/h
162 03-10-2019 13:25:00 12.3 C 9.56 g/m*3 12.3 C 0 km/h
163 03-10-2019 13:30:00 12.3 C 9.66 g/m*3 12.3 C 1.6 km/h
164 03-10-2019 13:35:00 12.2 C 9.6 g/m*3 12.2 C 0 km/h
165 03-10-2019 13:40:00 12.1 C 9.65 g/m*3 12.1 C 0 km/h
166 03-10-2019 13:45:00 12 C 9.59 g/m*3 12 C 0 km/h
167 03-10-2019 13:50:00 11.9 C 9.64 g/m*3 11.9 C 0 km/h
168 03-10-2019 13:55:00 11.9 C 9.64 g/m*3 11.9 C 0 km/h
169 03-10-2019 14:00:00 11.8 C 9.68 g/m*3 11.8 C 0 km/h
170 03-10-2019 14:05:00 11.8 C 9.68 g/m*3 11.8 C 0 km/h
171 03-10-2019 14:10:00 11.8 C 9.68 g/m*3 11.8 C 0 km/h
172 03-10-2019 14:15:00 11.9 C 9.74 g/m*3 11.9 C 0 km/h
173 03-10-2019 14:20:00 11.9 C 9.74 g/m*3 11.9 C 0 km/h
174 03-10-2019 14:25:00 11.9 C 9.85 g/m*3 11.9 C 0 km/h
175 03-10-2019 14:30:00 11.8 C 9.79 g/m*3 11.8 C 3.2 km/h
Sensor: Nr:Datum:Temp:Abs-Feuchte:Windchill:Wind:
Aussen-T/F 176 03-10-2019 14:35:00 11.7 C 9.62 g/m*3 11.7 C 4.8 km/h
177 03-10-2019 14:40:00 11.6 C 9.56 g/m*3 11.6 C 0 km/h
178 03-10-2019 14:45:00 11.4 C 9.44 g/m*3 11.4 C 0 km/h
179 03-10-2019 14:50:00 11.3 C 9.49 g/m*3 11.3 C 1.6 km/h
180 03-10-2019 14:55:00 11.3 C 9.49 g/m*3 11.3 C 0 km/h
181 03-10-2019 15:00:00 11.2 C 9.43 g/m*3 11.2 C 0 km/h
182 03-10-2019 15:05:00 11.3 C 9.59 g/m*3 11.3 C 0 km/h
183 03-10-2019 15:10:00 11.4 C 9.65 g/m*3 11.4 C 3.2 km/h
184 03-10-2019 15:15:00 11.6 C 9.87 g/m*3 11.6 C 1.6 km/h
185 03-10-2019 15:20:00 11.8 C 10 g/m*3 11.8 C 0 km/h
186 03-10-2019 15:25:00 12 C 10.12 g/m*3 12 C 0 km/h
187 03-10-2019 15:30:00 12.2 C 10.25 g/m*3 12.2 C 1.6 km/h
188 03-10-2019 15:35:00 12.2 C 10.25 g/m*3 12.2 C 0 km/h
189 03-10-2019 15:40:00 12.2 C 10.25 g/m*3 12.2 C 0 km/h
190 03-10-2019 15:45:00 12.2 C 10.14 g/m*3 12.2 C 0 km/h
191 03-10-2019 15:50:00 12.2 C 10.25 g/m*3 12.2 C 1.6 km/h
192 03-10-2019 15:55:00 12.3 C 10.32 g/m*3 12.3 C 1.6 km/h
193 03-10-2019 16:00:00 12.3 C 10.21 g/m*3 12.3 C 9.7 km/h
194 03-10-2019 16:05:00 12.2 C 9.93 g/m*3 12.2 C 8.1 km/h
195 03-10-2019 16:10:00 12.1 C 9.97 g/m*3 12.1 C 6.4 km/h
196 03-10-2019 16:15:00 12.1 C 9.87 g/m*3 12.1 C 1.6 km/h
197 03-10-2019 16:20:00 12.2 C 10.04 g/m*3 12.2 C 0 km/h
198 03-10-2019 16:25:00 12.2 C 10.04 g/m*3 12.2 C 1.6 km/h
199 03-10-2019 16:30:00 12.1 C 9.97 g/m*3 12.1 C 0 km/h
200 03-10-2019 16:35:00 12.1 C 9.97 g/m*3 12.1 C 0 km/h
Sensor: Nr:Datum:Temp:Abs-Feuchte:Windchill:Wind:
Aussen-T/F 201 03-10-2019 16:40:00 12.1 C 9.97 g/m*3 12.1 C 1.6 km/h
202 03-10-2019 16:45:00 12.1 C 9.97 g/m*3 12.1 C 0 km/h
203 03-10-2019 16:50:00 12.2 C 10.14 g/m*3 12.2 C 0 km/h
204 03-10-2019 16:55:00 12.2 C 10.14 g/m*3 12.2 C 0 km/h
205 03-10-2019 17:00:00 12.1 C 10.08 g/m*3 12.1 C 0 km/h
206 03-10-2019 17:05:00 12.1 C 9.97 g/m*3 12.1 C 0 km/h
207 03-10-2019 17:10:00 12.1 C 9.97 g/m*3 12.1 C 0 km/h
208 03-10-2019 17:15:00 11.9 C 9.96 g/m*3 11.9 C 0 km/h
209 03-10-2019 17:20:00 11.9 C 9.96 g/m*3 11.9 C 0 km/h
210 03-10-2019 17:25:00 11.8 C 9.89 g/m*3 11.8 C 0 km/h
211 03-10-2019 17:30:00 11.8 C 9.79 g/m*3 11.8 C 0 km/h
212 03-10-2019 17:35:00 11.7 C 9.73 g/m*3 11.7 C 0 km/h
213 03-10-2019 17:40:00 11.6 C 9.67 g/m*3 11.6 C 0 km/h
214 03-10-2019 17:45:00 11.4 C 9.55 g/m*3 11.4 C 0 km/h
215 03-10-2019 17:50:00 11.4 C 9.55 g/m*3 11.4 C 0 km/h
216 03-10-2019 17:55:00 11.3 C 9.59 g/m*3 11.3 C 0 km/h
217 03-10-2019 18:00:00 11.2 C 9.53 g/m*3 11.2 C 0 km/h
218 03-10-2019 18:05:00 11.2 C 9.53 g/m*3 11.2 C 3.2 km/h
219 03-10-2019 18:10:00 11.1 C 9.47 g/m*3 11.1 C 0 km/h
220 03-10-2019 18:15:00 11.1 C 9.47 g/m*3 11.1 C 0 km/h
221 03-10-2019 18:20:00 11 C 9.41 g/m*3 11 C 1.6 km/h
222 03-10-2019 18:25:00 10.9 C 9.35 g/m*3 10.9 C 1.6 km/h
223 03-10-2019 18:30:00 10.8 C 9.29 g/m*3 10.8 C 0 km/h
224 03-10-2019 18:35:00 10.7 C 9.23 g/m*3 10.7 C 1.6 km/h
225 03-10-2019 18:40:00 10.6 C 9.17 g/m*3 10.6 C 0 km/h
Sensor: Nr:Datum:Temp:Abs-Feuchte:Windchill:Wind:
Aussen-T/F 226 03-10-2019 18:45:00 10.5 C 9.12 g/m*3 10.5 C 1.6 km/h
227 03-10-2019 18:50:00 10.4 C 9.06 g/m*3 10.4 C 1.6 km/h
228 03-10-2019 18:55:00 10.3 C 9 g/m*3 10.3 C 1.6 km/h
229 03-10-2019 19:00:00 10.2 C 8.95 g/m*3 10.2 C 1.6 km/h
230 03-10-2019 19:05:00 10.1 C 8.89 g/m*3 10.1 C 1.6 km/h
231 03-10-2019 19:10:00 10.1 C 8.89 g/m*3 10.1 C 1.6 km/h
232 03-10-2019 19:15:00 10 C 8.83 g/m*3 10 C 1.6 km/h
233 03-10-2019 19:20:00 9.9 C 8.78 g/m*3 9.9 C 0 km/h
234 03-10-2019 19:25:00 9.9 C 8.87 g/m*3 9.9 C 1.6 km/h
235 03-10-2019 19:30:00 9.9 C 8.87 g/m*3 9.9 C 1.6 km/h
236 03-10-2019 19:35:00 9.8 C 8.81 g/m*3 9.8 C 0 km/h
237 03-10-2019 19:40:00 9.8 C 8.81 g/m*3 9.8 C 0 km/h
238 03-10-2019 19:45:00 9.8 C 8.81 g/m*3 9.8 C 0 km/h
239 03-10-2019 19:50:00 9.7 C 8.76 g/m*3 9.7 C 0 km/h
240 03-10-2019 19:55:00 9.7 C 8.76 g/m*3 9.7 C 0 km/h
241 03-10-2019 20:00:00 9.6 C 8.7 g/m*3 9.6 C 0 km/h
242 03-10-2019 20:05:00 9.6 C 8.7 g/m*3 9.6 C 0 km/h
243 03-10-2019 20:10:00 9.6 C 8.7 g/m*3 9.6 C 0 km/h
244 03-10-2019 20:15:00 9.5 C 8.65 g/m*3 9.5 C 0 km/h
245 03-10-2019 20:20:00 9.4 C 8.59 g/m*3 9.4 C 0 km/h
246 03-10-2019 20:25:00 9.3 C 8.54 g/m*3 9.3 C 0 km/h
247 03-10-2019 20:30:00 9.3 C 8.54 g/m*3 9.3 C 0 km/h
248 03-10-2019 20:35:00 9.3 C 8.54 g/m*3 9.3 C 0 km/h
249 03-10-2019 20:40:00 9.2 C 8.48 g/m*3 9.2 C 0 km/h
250 03-10-2019 20:45:00 9.2 C 8.48 g/m*3 9.2 C 0 km/h
Sensor: Nr:Datum:Temp:Abs-Feuchte:Windchill:Wind:
Aussen-T/F 251 03-10-2019 20:50:00 9.2 C 8.48 g/m*3 9.2 C 0 km/h
252 03-10-2019 20:55:00 9.2 C 8.57 g/m*3 9.2 C 0 km/h
253 03-10-2019 21:00:00 9.2 C 8.57 g/m*3 9.2 C 0 km/h
254 03-10-2019 21:05:00 9.2 C 8.57 g/m*3 9.2 C 0 km/h
255 03-10-2019 21:10:00 9.2 C 8.57 g/m*3 9.2 C 0 km/h
256 03-10-2019 21:15:00 9.2 C 8.57 g/m*3 9.2 C 0 km/h
257 03-10-2019 21:20:00 9.1 C 8.52 g/m*3 9.1 C 0 km/h
258 03-10-2019 21:25:00 9 C 8.38 g/m*3 9 C 0 km/h
259 03-10-2019 21:30:00 8.9 C 8.32 g/m*3 8.9 C 0 km/h
260 03-10-2019 21:35:00 8.9 C 8.41 g/m*3 8.9 C 0 km/h
261 03-10-2019 21:40:00 8.9 C 8.41 g/m*3 8.9 C 0 km/h
262 03-10-2019 21:45:00 8.9 C 8.41 g/m*3 8.9 C 0 km/h
263 03-10-2019 21:50:00 8.8 C 8.36 g/m*3 8.8 C 0 km/h
264 03-10-2019 21:55:00 8.8 C 8.36 g/m*3 8.8 C 0 km/h
265 03-10-2019 22:00:00 8.8 C 8.36 g/m*3 8.8 C 0 km/h
266 03-10-2019 22:05:00 8.8 C 8.36 g/m*3 8.8 C 0 km/h
267 03-10-2019 22:10:00 8.8 C 8.36 g/m*3 8.8 C 0 km/h
268 03-10-2019 22:15:00 8.7 C 8.3 g/m*3 8.7 C 0 km/h
269 03-10-2019 22:20:00 8.7 C 8.3 g/m*3 8.7 C 0 km/h
270 03-10-2019 22:25:00 8.7 C 8.3 g/m*3 8.7 C 0 km/h
271 03-10-2019 22:30:00 8.6 C 8.25 g/m*3 8.6 C 0 km/h
272 03-10-2019 22:35:00 8.6 C 8.25 g/m*3 8.6 C 0 km/h
273 03-10-2019 22:40:00 8.5 C 8.2 g/m*3 8.5 C 0 km/h
274 03-10-2019 22:45:00 8.5 C 8.2 g/m*3 8.5 C 0 km/h
275 03-10-2019 22:50:00 8.4 C 8.14 g/m*3 8.4 C 0 km/h
Sensor: Nr:Datum:Temp:Abs-Feuchte:Windchill:Wind:
Aussen-T/F 276 03-10-2019 22:55:00 8.4 C 8.14 g/m*3 8.4 C 0 km/h
277 03-10-2019 23:00:00 8.4 C 8.14 g/m*3 8.4 C 0 km/h
278 03-10-2019 23:05:00 8.4 C 8.14 g/m*3 8.4 C 0 km/h
279 03-10-2019 23:10:00 8.4 C 8.14 g/m*3 8.4 C 0 km/h
280 03-10-2019 23:15:00 8.4 C 8.14 g/m*3 8.4 C 0 km/h
281 03-10-2019 23:20:00 8.4 C 8.14 g/m*3 8.4 C 0 km/h
282 03-10-2019 23:25:00 8.4 C 8.14 g/m*3 8.4 C 0 km/h
283 03-10-2019 23:30:00 8.4 C 8.14 g/m*3 8.4 C 0 km/h
284 03-10-2019 23:35:00 8.4 C 8.14 g/m*3 8.4 C 0 km/h
285 03-10-2019 23:40:00 8.3 C 8.09 g/m*3 8.3 C 0 km/h
286 03-10-2019 23:45:00 8.3 C 8.09 g/m*3 8.3 C 0 km/h
287 03-10-2019 23:50:00 8.3 C 8.09 g/m*3 8.3 C 0 km/h
288 03-10-2019 23:55:00 8.4 C 8.14 g/m*3 8.4 C 0 km/h
289 04-10-2019 00:00:00 8.4 C 8.14 g/m*3 8.4 C 0 km/h
290 04-10-2019 00:05:00 8.4 C 8.14 g/m*3 8.4 C 0 km/h
291 04-10-2019 00:10:00 8.4 C 8.14 g/m*3 8.4 C 0 km/h
292 04-10-2019 00:15:00 8.4 C 8.14 g/m*3 8.4 C 0 km/h
293 04-10-2019 00:20:00 8.4 C 8.14 g/m*3 8.4 C 0 km/h
294 04-10-2019 00:25:00 8.5 C 8.2 g/m*3 8.5 C 0 km/h
295 04-10-2019 00:30:00 8.4 C 8.14 g/m*3 8.4 C 0 km/h
296 04-10-2019 00:35:00 8.4 C 8.14 g/m*3 8.4 C 0 km/h
297 04-10-2019 00:40:00 8.4 C 8.14 g/m*3 8.4 C 0 km/h
298 04-10-2019 00:45:00 8.4 C 8.14 g/m*3 8.4 C 0 km/h
299 04-10-2019 00:50:00 8.3 C 8.09 g/m*3 8.3 C 0 km/h
300 04-10-2019 00:55:00 8.2 C 8.04 g/m*3 8.2 C 0 km/h
Sensor: Nr:Datum:Temp:Abs-Feuchte:Windchill:Wind:
Aussen-T/F 301 04-10-2019 01:00:00 8.1 C 7.99 g/m*3 8.1 C 0 km/h
302 04-10-2019 01:05:00 8.1 C 7.99 g/m*3 8.1 C 0 km/h
303 04-10-2019 01:10:00 8.1 C 7.99 g/m*3 8.1 C 0 km/h
304 04-10-2019 01:15:00 8.2 C 8.04 g/m*3 8.2 C 0 km/h
305 04-10-2019 01:20:00 8.2 C 8.04 g/m*3 8.2 C 0 km/h
306 04-10-2019 01:25:00 8.2 C 8.04 g/m*3 8.2 C 1.6 km/h
307 04-10-2019 01:30:00 8.2 C 8.04 g/m*3 8.2 C 0 km/h
308 04-10-2019 01:35:00 8.3 C 8.09 g/m*3 8.3 C 0 km/h
309 04-10-2019 01:40:00 8.3 C 8.09 g/m*3 8.3 C 0 km/h
310 04-10-2019 01:45:00 8.3 C 8.18 g/m*3 8.3 C 0 km/h
311 04-10-2019 01:50:00 8.3 C 8.18 g/m*3 8.3 C 0 km/h
312 04-10-2019 01:55:00 8.3 C 8.18 g/m*3 8.3 C 0 km/h
313 04-10-2019 02:00:00 8.3 C 8.18 g/m*3 8.3 C 0 km/h
314 04-10-2019 02:05:00 8.3 C 8.18 g/m*3 8.3 C 0 km/h
315 04-10-2019 02:10:00 8.3 C 8.09 g/m*3 8.3 C 0 km/h
316 04-10-2019 02:15:00 8.3 C 8.09 g/m*3 8.3 C 0 km/h
317 04-10-2019 02:20:00 8.2 C 8.04 g/m*3 8.2 C 0 km/h
318 04-10-2019 02:25:00 8.2 C 8.04 g/m*3 8.2 C 0 km/h
319 04-10-2019 02:30:00 8.2 C 8.04 g/m*3 8.2 C 0 km/h
320 04-10-2019 02:35:00 8.1 C 7.99 g/m*3 8.1 C 0 km/h
321 04-10-2019 02:40:00 8.1 C 8.07 g/m*3 8.1 C 0 km/h
322 04-10-2019 02:45:00 8.1 C 8.07 g/m*3 8.1 C 0 km/h
323 04-10-2019 02:50:00 8.1 C 8.07 g/m*3 8.1 C 0 km/h
324 04-10-2019 02:55:00 8.1 C 8.07 g/m*3 8.1 C 0 km/h
325 04-10-2019 03:00:00 8.1 C 8.07 g/m*3 8.1 C 0 km/h
Sensor: Nr:Datum:Temp:Abs-Feuchte:Windchill:Wind:
Aussen-T/F 326 04-10-2019 03:05:00 8.1 C 8.07 g/m*3 8.1 C 0 km/h
327 04-10-2019 03:10:00 8.1 C 8.07 g/m*3 8.1 C 0 km/h
328 04-10-2019 03:15:00 8.1 C 8.07 g/m*3 8.1 C 0 km/h
329 04-10-2019 03:20:00 8.1 C 8.07 g/m*3 8.1 C 0 km/h
330 04-10-2019 03:25:00 8.1 C 8.07 g/m*3 8.1 C 0 km/h
331 04-10-2019 03:30:00 8.1 C 8.07 g/m*3 8.1 C 0 km/h
332 04-10-2019 03:35:00 8.1 C 8.07 g/m*3 8.1 C 0 km/h
333 04-10-2019 03:40:00 8 C 8.02 g/m*3 8 C 0 km/h
334 04-10-2019 03:45:00 8 C 8.02 g/m*3 8 C 0 km/h
335 04-10-2019 03:50:00 8 C 7.94 g/m*3 8 C 0 km/h
336 04-10-2019 03:55:00 7.9 C 7.97 g/m*3 7.9 C 0 km/h
337 04-10-2019 04:00:00 7.9 C 7.97 g/m*3 7.9 C 0 km/h
338 04-10-2019 04:05:00 7.9 C 7.97 g/m*3 7.9 C 0 km/h
339 04-10-2019 04:10:00 7.8 C 7.92 g/m*3 7.8 C 0 km/h
340 04-10-2019 04:15:00 7.8 C 7.92 g/m*3 7.8 C 0 km/h
341 04-10-2019 04:20:00 7.7 C 7.87 g/m*3 7.7 C 0 km/h
342 04-10-2019 04:25:00 7.7 C 7.87 g/m*3 7.7 C 0 km/h
343 04-10-2019 04:30:00 7.6 C 7.73 g/m*3 7.6 C 0 km/h
344 04-10-2019 04:35:00 7.6 C 7.73 g/m*3 7.6 C 0 km/h
345 04-10-2019 04:40:00 7.6 C 7.81 g/m*3 7.6 C 0 km/h
346 04-10-2019 04:45:00 7.6 C 7.81 g/m*3 7.6 C 0 km/h
347 04-10-2019 04:50:00 7.7 C 7.87 g/m*3 7.7 C 0 km/h
348 04-10-2019 04:55:00 7.7 C 7.87 g/m*3 7.7 C 0 km/h
349 04-10-2019 05:00:00 7.8 C 7.92 g/m*3 7.8 C 0 km/h
350 04-10-2019 05:05:00 7.8 C 7.92 g/m*3 7.8 C 0 km/h
Sensor: Nr:Datum:Temp:Abs-Feuchte:Windchill:Wind:
Aussen-T/F 351 04-10-2019 05:10:00 7.9 C 7.97 g/m*3 7.9 C 0 km/h
352 04-10-2019 05:15:00 7.9 C 7.97 g/m*3 7.9 C 0 km/h
353 04-10-2019 05:20:00 7.9 C 7.97 g/m*3 7.9 C 0 km/h
354 04-10-2019 05:25:00 7.9 C 7.97 g/m*3 7.9 C 0 km/h
355 04-10-2019 05:30:00 7.9 C 7.97 g/m*3 7.9 C 0 km/h
356 04-10-2019 05:35:00 7.9 C 7.97 g/m*3 7.9 C 0 km/h
357 04-10-2019 05:40:00 8 C 8.02 g/m*3 8 C 0 km/h
358 04-10-2019 05:45:00 7.9 C 7.97 g/m*3 7.9 C 0 km/h
359 04-10-2019 05:50:00 8 C 8.02 g/m*3 8 C 0 km/h
360 04-10-2019 05:55:00 8 C 8.02 g/m*3 8 C 0 km/h
361 04-10-2019 06:00:00 8 C 8.02 g/m*3 8 C 0 km/h
362 04-10-2019 06:05:00 7.9 C 7.97 g/m*3 7.9 C 0 km/h
363 04-10-2019 06:10:00 7.9 C 7.97 g/m*3 7.9 C 0 km/h
364 04-10-2019 06:15:00 7.9 C 7.97 g/m*3 7.9 C 0 km/h
365 04-10-2019 06:20:00 7.9 C 7.97 g/m*3 7.9 C 0 km/h
366 04-10-2019 06:25:00 7.9 C 7.97 g/m*3 7.9 C 1.6 km/h
367 04-10-2019 06:30:00 7.9 C 7.97 g/m*3 7.9 C 0 km/h
368 04-10-2019 06:35:00 7.9 C 7.97 g/m*3 7.9 C 0 km/h
369 04-10-2019 06:40:00 8 C 8.02 g/m*3 8 C 4.8 km/h
370 04-10-2019 06:45:00 8.1 C 8.07 g/m*3 8.1 C 4.8 km/h
371 04-10-2019 06:50:00 8.1 C 8.07 g/m*3 8.1 C 0 km/h
372 04-10-2019 06:55:00 8.1 C 8.07 g/m*3 8.1 C 0 km/h
373 04-10-2019 07:00:00 8.1 C 8.07 g/m*3 6.42 C 9.7 km/h
374 04-10-2019 07:05:00 8.1 C 8.07 g/m*3 6.42 C 9.7 km/h
375 04-10-2019 07:10:00 8.1 C 8.07 g/m*3 8.1 C 0 km/h
Sensor: Nr:Datum:Temp:Abs-Feuchte:Windchill:Wind:
Aussen-T/F 376 04-10-2019 07:15:00 8.1 C 8.07 g/m*3 8.1 C 0 km/h
377 04-10-2019 07:20:00 8.1 C 8.07 g/m*3 8.1 C 3.2 km/h
378 04-10-2019 07:25:00 8.1 C 8.07 g/m*3 8.1 C 1.6 km/h
379 04-10-2019 07:30:00 8.1 C 8.07 g/m*3 8.1 C 0 km/h
380 04-10-2019 07:35:00 8.1 C 8.07 g/m*3 8.1 C 0 km/h
381 04-10-2019 07:40:00 8.2 C 8.12 g/m*3 8.2 C 0 km/h
382 04-10-2019 07:45:00 8.2 C 8.12 g/m*3 8.2 C 3.2 km/h
383 04-10-2019 07:50:00 8.2 C 8.12 g/m*3 8.2 C 3.2 km/h
384 04-10-2019 07:55:00 8.2 C 8.12 g/m*3 8.2 C 1.6 km/h
385 04-10-2019 08:00:00 8.2 C 8.12 g/m*3 8.2 C 0 km/h
386 04-10-2019 08:05:00 8.3 C 8.18 g/m*3 8.3 C 3.2 km/h
387 04-10-2019 08:10:00 8.3 C 8.18 g/m*3 8.3 C 1.6 km/h
388 04-10-2019 08:15:00 8.3 C 8.18 g/m*3 8.3 C 0 km/h
389 04-10-2019 08:20:00 8.4 C 8.23 g/m*3 8.4 C 0 km/h
390 04-10-2019 08:25:00 8.4 C 8.23 g/m*3 8.4 C 0 km/h
391 04-10-2019 08:30:00 8.6 C 8.34 g/m*3 8.6 C 0 km/h
392 04-10-2019 08:35:00 8.6 C 8.34 g/m*3 8.6 C 4.8 km/h
393 04-10-2019 08:40:00 8.6 C 8.34 g/m*3 8.6 C 0 km/h
394 04-10-2019 08:45:00 8.6 C 8.34 g/m*3 8.6 C 0 km/h
395 04-10-2019 08:50:00 8.6 C 8.34 g/m*3 8.6 C 1.6 km/h
396 04-10-2019 08:55:00 8.6 C 8.34 g/m*3 8.6 C 1.6 km/h
397 04-10-2019 09:00:00 8.6 C 8.34 g/m*3 8.6 C 0 km/h
398 04-10-2019 09:05:00 8.6 C 8.34 g/m*3 8.6 C 0 km/h
399 04-10-2019 09:10:00 8.6 C 8.34 g/m*3 8.6 C 0 km/h
400 04-10-2019 09:15:00 8.7 C 8.39 g/m*3 8.7 C 0 km/h
Sensor: Nr:Datum:Temp:Abs-Feuchte:Windchill:Wind:
Aussen-T/F 401 04-10-2019 09:20:00 8.7 C 8.39 g/m*3 8.7 C 0 km/h
402 04-10-2019 09:25:00 8.7 C 8.39 g/m*3 8.7 C 0 km/h
403 04-10-2019 09:30:00 8.7 C 8.39 g/m*3 7.87 C 6.4 km/h
404 04-10-2019 09:35:00 8.7 C 8.39 g/m*3 8.7 C 1.6 km/h
405 04-10-2019 09:40:00 8.7 C 8.39 g/m*3 8.7 C 0 km/h
406 04-10-2019 09:45:00 8.8 C 8.44 g/m*3 8.8 C 1.6 km/h
407 04-10-2019 09:50:00 8.8 C 8.44 g/m*3 8.8 C 0 km/h
408 04-10-2019 09:55:00 8.9 C 8.5 g/m*3 8.9 C 0 km/h
409 04-10-2019 10:00:00 8.9 C 8.5 g/m*3 8.9 C 0 km/h
410 04-10-2019 10:05:00 9 C 8.55 g/m*3 9 C 0 km/h
411 04-10-2019 10:10:00 9.1 C 8.61 g/m*3 9.1 C 1.6 km/h
412 04-10-2019 10:15:00 9.1 C 8.61 g/m*3 9.1 C 4.8 km/h
413 04-10-2019 10:20:00 9.1 C 8.61 g/m*3 9.1 C 4.8 km/h
414 04-10-2019 10:25:00 9 C 8.55 g/m*3 9 C 3.2 km/h
415 04-10-2019 10:30:00 9.1 C 8.61 g/m*3 7.33 C 11.3 km/h
416 04-10-2019 10:35:00 9.1 C 8.61 g/m*3 9.1 C 1.6 km/h
417 04-10-2019 10:40:00 9.2 C 8.66 g/m*3 8.45 C 6.4 km/h
418 04-10-2019 10:45:00 9.2 C 8.57 g/m*3 9.2 C 4.8 km/h
419 04-10-2019 10:50:00 9.3 C 8.72 g/m*3 9.3 C 3.2 km/h
420 04-10-2019 10:55:00 9.4 C 8.77 g/m*3 9.4 C 4.8 km/h
421 04-10-2019 11:00:00 9.4 C 8.68 g/m*3 8.68 C 6.4 km/h
422 04-10-2019 11:05:00 9.5 C 8.74 g/m*3 8.79 C 6.4 km/h
423 04-10-2019 11:10:00 9.6 C 8.79 g/m*3 8.91 C 6.4 km/h
424 04-10-2019 11:15:00 9.7 C 8.85 g/m*3 9.02 C 6.4 km/h
425 04-10-2019 11:20:00 9.7 C 8.85 g/m*3 8.63 C 8.1 km/h
Sensor: Nr:Datum:Temp:Abs-Feuchte:Windchill:Wind:
Aussen-T/F 426 04-10-2019 11:25:00 9.7 C 8.85 g/m*3 8.63 C 8.1 km/h
427 04-10-2019 11:30:00 9.8 C 8.91 g/m*3 9.8 C 4.8 km/h
428 04-10-2019 11:35:00 9.8 C 8.91 g/m*3 8.45 C 9.7 km/h
429 04-10-2019 11:40:00 9.8 C 8.91 g/m*3 9.8 C 4.8 km/h
430 04-10-2019 11:45:00 9.9 C 8.96 g/m*3 9.9 C 3.2 km/h
431 04-10-2019 11:50:00 10 C 9.02 g/m*3 10 C 1.6 km/h
432 04-10-2019 11:55:00 10.2 C 9.14 g/m*3 10.2 C 3.2 km/h
433 04-10-2019 12:00:00 10.3 C 9.19 g/m*3 9.72 C 6.4 km/h
434 04-10-2019 12:05:00 10.4 C 9.25 g/m*3 10.4 C 1.6 km/h
435 04-10-2019 12:10:00 10.6 C 9.37 g/m*3 10.6 C 1.6 km/h
436 04-10-2019 12:15:00 10.6 C 9.37 g/m*3 10.6 C 4.8 km/h
437 04-10-2019 12:20:00 10.6 C 9.27 g/m*3 10.6 C 4.8 km/h
438 04-10-2019 12:25:00 10.6 C 9.27 g/m*3 10.6 C 1.6 km/h
439 04-10-2019 12:30:00 10.7 C 9.33 g/m*3 10.7 C 4.8 km/h
440 04-10-2019 12:35:00 10.7 C 9.33 g/m*3 10.7 C 0 km/h
441 04-10-2019 12:40:00 10.8 C 9.39 g/m*3 10.8 C 0 km/h
442 04-10-2019 12:45:00 10.8 C 9.39 g/m*3 10.8 C 1.6 km/h
443 04-10-2019 12:50:00 10.8 C 9.39 g/m*3 10.8 C 4.8 km/h
444 04-10-2019 12:55:00 10.9 C 9.45 g/m*3 10.9 C 4.8 km/h
445 04-10-2019 13:00:00 10.9 C 9.35 g/m*3 10.9 C 3.2 km/h
446 04-10-2019 13:05:00 11.1 C 9.57 g/m*3 11.1 C 1.6 km/h
447 04-10-2019 13:10:00 11.1 C 9.57 g/m*3 11.1 C 3.2 km/h
448 04-10-2019 13:15:00 11.1 C 9.47 g/m*3 11.1 C 3.2 km/h
449 04-10-2019 13:20:00 11.2 C 9.53 g/m*3 11.2 C 0 km/h
450 04-10-2019 13:25:00 11.2 C 9.53 g/m*3 11.2 C 1.6 km/h
Sensor: Nr:Datum:Temp:Abs-Feuchte:Windchill:Wind:
Aussen-T/F 451 04-10-2019 13:30:00 11.2 C 9.53 g/m*3 11.2 C 0 km/h
452 04-10-2019 13:35:00 11.3 C 9.59 g/m*3 11.3 C 0 km/h
453 04-10-2019 13:40:00 11.3 C 9.69 g/m*3 11.3 C 1.6 km/h
454 04-10-2019 13:45:00 11.4 C 9.75 g/m*3 11.4 C 6.4 km/h
455 04-10-2019 13:50:00 11.6 C 9.87 g/m*3 11.6 C 3.2 km/h
456 04-10-2019 13:55:00 11.7 C 9.94 g/m*3 11.7 C 0 km/h
457 04-10-2019 14:00:00 11.9 C 10.06 g/m*3 11.9 C 1.6 km/h
458 04-10-2019 14:05:00 12.2 C 10.25 g/m*3 12.2 C 3.2 km/h
459 04-10-2019 14:10:00 12.3 C 10.21 g/m*3 12.3 C 4.8 km/h
460 04-10-2019 14:15:00 12.6 C 10.29 g/m*3 12.6 C 8.1 km/h
461 04-10-2019 14:20:00 12.8 C 10.3 g/m*3 12.8 C 8.1 km/h
462 04-10-2019 14:25:00 13.1 C 10.38 g/m*3 13.1 C 9.7 km/h
463 04-10-2019 14:30:00 13.4 C 10.46 g/m*3 13.4 C 8.1 km/h
464 04-10-2019 14:35:00 13.7 C 10.54 g/m*3 13.7 C 11.3 km/h
465 04-10-2019 14:40:00 13.7 C 10.42 g/m*3 13.7 C 11.3 km/h
466 04-10-2019 14:45:00 13.6 C 10.36 g/m*3 13.6 C 8.1 km/h
467 04-10-2019 14:50:00 13.5 C 10.18 g/m*3 13.5 C 9.7 km/h
468 04-10-2019 14:55:00 13.6 C 10.47 g/m*3 13.6 C 6.4 km/h
469 04-10-2019 15:00:00 13.7 C 10.42 g/m*3 13.7 C 6.4 km/h
470 04-10-2019 15:05:00 13.7 C 10.54 g/m*3 13.7 C 4.8 km/h
471 04-10-2019 15:10:00 13.7 C 10.3 g/m*3 13.7 C 8.1 km/h
472 04-10-2019 15:15:00 13.8 C 10.48 g/m*3 13.8 C 8.1 km/h
473 04-10-2019 15:20:00 13.7 C 10.42 g/m*3 13.7 C 4.8 km/h
474 04-10-2019 15:25:00 13.7 C 10.3 g/m*3 13.7 C 6.4 km/h
475 04-10-2019 15:30:00 13.7 C 10.54 g/m*3 13.7 C 8.1 km/h
Sensor: Nr:Datum:Temp:Abs-Feuchte:Windchill:Wind:
Aussen-T/F 476 04-10-2019 15:35:00 13.8 C 10.37 g/m*3 13.8 C 11.3 km/h
477 04-10-2019 15:40:00 13.9 C 10.55 g/m*3 13.9 C 8.1 km/h
478 04-10-2019 15:45:00 13.9 C 10.43 g/m*3 13.9 C 11.3 km/h
479 04-10-2019 15:50:00 14.1 C 10.68 g/m*3 14.1 C 3.2 km/h
480 04-10-2019 15:55:00 14.1 C 10.68 g/m*3 14.1 C 3.2 km/h
481 04-10-2019 16:00:00 14.2 C 10.62 g/m*3 14.2 C 3.2 km/h
482 04-10-2019 16:05:00 14.2 C 10.75 g/m*3 14.2 C 6.4 km/h
483 04-10-2019 16:10:00 14.2 C 10.62 g/m*3 14.2 C 8.1 km/h
484 04-10-2019 16:15:00 14.2 C 10.75 g/m*3 14.2 C 3.2 km/h
485 04-10-2019 16:20:00 14.1 C 10.8 g/m*3 14.1 C 0 km/h
486 04-10-2019 16:25:00 14.1 C 10.8 g/m*3 14.1 C 0 km/h
487 04-10-2019 16:30:00 14.1 C 10.92 g/m*3 14.1 C 0 km/h
488 04-10-2019 16:35:00 14.1 C 11.04 g/m*3 14.1 C 1.6 km/h
489 04-10-2019 16:40:00 14 C 10.98 g/m*3 14 C 0 km/h
490 04-10-2019 16:45:00 13.9 C 10.91 g/m*3 13.9 C 0 km/h
491 04-10-2019 16:50:00 13.8 C 10.84 g/m*3 13.8 C 0 km/h
492 04-10-2019 16:55:00 13.8 C 10.96 g/m*3 13.8 C 0 km/h
493 04-10-2019 17:00:00 13.7 C 10.89 g/m*3 13.7 C 0 km/h
494 04-10-2019 17:05:00 13.6 C 10.83 g/m*3 13.6 C 0 km/h
495 04-10-2019 17:10:00 13.6 C 10.83 g/m*3 13.6 C 0 km/h
496 04-10-2019 17:15:00 13.5 C 10.76 g/m*3 13.5 C 0 km/h
497 04-10-2019 17:20:00 13.4 C 10.81 g/m*3 13.4 C 0 km/h
498 04-10-2019 17:25:00 13.3 C 10.74 g/m*3 13.3 C 4.8 km/h
499 04-10-2019 17:30:00 13.3 C 10.74 g/m*3 13.3 C 4.8 km/h
500 04-10-2019 17:35:00 13.3 C 10.74 g/m*3 13.3 C 4.8 km/h
Sensor: Nr:Datum:Temp:Abs-Feuchte:Windchill:Wind:
Aussen-T/F 501 04-10-2019 17:40:00 13.3 C 10.86 g/m*3 13.3 C 1.6 km/h
502 04-10-2019 17:45:00 13.2 C 10.79 g/m*3 13.2 C 3.2 km/h
503 04-10-2019 17:50:00 13.1 C 10.61 g/m*3 13.1 C 3.2 km/h
504 04-10-2019 17:55:00 13.1 C 10.73 g/m*3 13.1 C 3.2 km/h
505 04-10-2019 18:00:00 13 C 10.66 g/m*3 13 C 1.6 km/h
506 04-10-2019 18:05:00 12.9 C 10.59 g/m*3 12.9 C 3.2 km/h
507 04-10-2019 18:10:00 12.8 C 10.53 g/m*3 12.8 C 6.4 km/h
508 04-10-2019 18:15:00 12.7 C 10.46 g/m*3 12.7 C 1.6 km/h
509 04-10-2019 18:20:00 12.6 C 10.4 g/m*3 12.6 C 0 km/h
510 04-10-2019 18:25:00 12.4 C 10.27 g/m*3 12.4 C 1.6 km/h
511 04-10-2019 18:30:00 12.2 C 10.14 g/m*3 12.2 C 0 km/h
512 04-10-2019 18:35:00 12.1 C 10.08 g/m*3 12.1 C 0 km/h
513 04-10-2019 18:40:00 12 C 10.02 g/m*3 12 C 3.2 km/h
514 04-10-2019 18:45:00 11.9 C 9.96 g/m*3 11.9 C 0 km/h
515 04-10-2019 18:50:00 11.9 C 10.06 g/m*3 11.9 C 0 km/h
516 04-10-2019 18:55:00 11.8 C 10 g/m*3 11.8 C 0 km/h
517 04-10-2019 19:00:00 11.8 C 10 g/m*3 11.8 C 1.6 km/h
518 04-10-2019 19:05:00 11.7 C 9.94 g/m*3 11.7 C 1.6 km/h
519 04-10-2019 19:10:00 11.7 C 9.94 g/m*3 11.7 C 1.6 km/h
520 04-10-2019 19:15:00 11.7 C 9.94 g/m*3 11.7 C 0 km/h
521 04-10-2019 19:20:00 11.7 C 9.94 g/m*3 11.7 C 0 km/h
522 04-10-2019 19:25:00 11.7 C 9.94 g/m*3 11.7 C 1.6 km/h
523 04-10-2019 19:30:00 11.7 C 9.94 g/m*3 11.7 C 0 km/h
524 04-10-2019 19:35:00 11.7 C 10.04 g/m*3 11.7 C 0 km/h
525 04-10-2019 19:40:00 11.7 C 10.04 g/m*3 11.7 C 0 km/h
Sensor: Nr:Datum:Temp:Abs-Feuchte:Windchill:Wind:
Aussen-T/F 526 04-10-2019 19:45:00 11.7 C 10.04 g/m*3 11.7 C 0 km/h
527 04-10-2019 19:50:00 11.7 C 10.04 g/m*3 11.7 C 3.2 km/h
528 04-10-2019 19:55:00 11.7 C 10.04 g/m*3 11.7 C 3.2 km/h
529 04-10-2019 20:00:00 11.8 C 10.1 g/m*3 11.8 C 3.2 km/h
530 04-10-2019 20:05:00 11.7 C 10.04 g/m*3 11.7 C 1.6 km/h
531 04-10-2019 20:10:00 11.7 C 10.04 g/m*3 11.7 C 1.6 km/h
532 04-10-2019 20:15:00 11.7 C 10.04 g/m*3 11.7 C 4.8 km/h
533 04-10-2019 20:20:00 11.6 C 9.98 g/m*3 11.6 C 1.6 km/h
534 04-10-2019 20:25:00 11.6 C 9.98 g/m*3 11.6 C 4.8 km/h
535 04-10-2019 20:30:00 11.6 C 9.98 g/m*3 11.6 C 4.8 km/h
536 04-10-2019 20:35:00 11.6 C 9.98 g/m*3 11.6 C 1.6 km/h
537 04-10-2019 20:40:00 11.6 C 9.98 g/m*3 11.6 C 3.2 km/h
538 04-10-2019 20:45:00 11.5 C 9.92 g/m*3 11.5 C 0 km/h
539 04-10-2019 20:50:00 11.6 C 9.98 g/m*3 11.6 C 1.6 km/h
540 04-10-2019 20:55:00 11.6 C 9.98 g/m*3 11.6 C 1.6 km/h
541 04-10-2019 21:00:00 11.6 C 9.98 g/m*3 11.6 C 1.6 km/h
542 04-10-2019 21:05:00 11.6 C 9.98 g/m*3 11.6 C 0 km/h
543 04-10-2019 21:10:00 11.6 C 9.98 g/m*3 11.6 C 1.6 km/h
544 04-10-2019 21:15:00 11.6 C 9.98 g/m*3 11.6 C 0 km/h
545 04-10-2019 21:20:00 11.6 C 9.98 g/m*3 11.6 C 3.2 km/h
546 04-10-2019 21:25:00 11.7 C 10.04 g/m*3 11.7 C 6.4 km/h
547 04-10-2019 21:30:00 11.7 C 10.04 g/m*3 11.7 C 8.1 km/h
548 04-10-2019 21:35:00 11.7 C 10.04 g/m*3 11.7 C 11.3 km/h
549 04-10-2019 21:40:00 11.7 C 10.04 g/m*3 11.7 C 9.7 km/h
550 04-10-2019 21:45:00 11.7 C 10.04 g/m*3 11.7 C 9.7 km/h
Sensor: Nr:Datum:Temp:Abs-Feuchte:Windchill:Wind:
Aussen-T/F 551 04-10-2019 21:50:00 11.7 C 10.04 g/m*3 11.7 C 3.2 km/h
552 04-10-2019 21:55:00 11.7 C 10.04 g/m*3 11.7 C 14.5 km/h
553 04-10-2019 22:00:00 11.7 C 10.04 g/m*3 11.7 C 14.5 km/h
554 04-10-2019 22:05:00 11.7 C 9.94 g/m*3 11.7 C 1.6 km/h
555 04-10-2019 22:10:00 11.7 C 9.94 g/m*3 11.7 C 3.2 km/h
556 04-10-2019 22:15:00 11.7 C 9.94 g/m*3 11.7 C 1.6 km/h
557 04-10-2019 22:20:00 11.7 C 9.94 g/m*3 11.7 C 4.8 km/h
558 04-10-2019 22:25:00 11.7 C 10.04 g/m*3 11.7 C 8.1 km/h
559 04-10-2019 22:30:00 11.7 C 9.94 g/m*3 11.7 C 6.4 km/h
560 04-10-2019 22:35:00 11.7 C 9.94 g/m*3 11.7 C 1.6 km/h
561 04-10-2019 22:40:00 11.7 C 9.94 g/m*3 11.7 C 8.1 km/h
562 04-10-2019 22:45:00 11.7 C 9.94 g/m*3 11.7 C 0 km/h
563 04-10-2019 22:50:00 11.7 C 10.04 g/m*3 11.7 C 0 km/h
564 04-10-2019 22:55:00 11.6 C 9.98 g/m*3 11.6 C 1.6 km/h
565 04-10-2019 23:00:00 11.7 C 10.04 g/m*3 11.7 C 3.2 km/h
566 04-10-2019 23:05:00 11.6 C 9.98 g/m*3 11.6 C 8.1 km/h
567 04-10-2019 23:10:00 11.6 C 9.98 g/m*3 11.6 C 6.4 km/h
568 04-10-2019 23:15:00 11.7 C 10.04 g/m*3 11.7 C 3.2 km/h
569 04-10-2019 23:20:00 11.7 C 10.04 g/m*3 11.7 C 3.2 km/h
570 04-10-2019 23:25:00 11.7 C 9.94 g/m*3 11.7 C 8.1 km/h
571 04-10-2019 23:30:00 11.7 C 9.94 g/m*3 11.7 C 6.4 km/h
572 04-10-2019 23:35:00 11.7 C 9.94 g/m*3 11.7 C 8.1 km/h
573 04-10-2019 23:40:00 11.8 C 10 g/m*3 11.8 C 4.8 km/h
574 04-10-2019 23:45:00 11.8 C 10 g/m*3 11.8 C 3.2 km/h
575 04-10-2019 23:50:00 11.8 C 10 g/m*3 11.8 C 9.7 km/h
Sensor: Nr:Datum:Temp:Abs-Feuchte:Windchill:Wind:
Aussen-T/F 576 04-10-2019 23:55:00 11.8 C 10 g/m*3 11.8 C 6.4 km/h
577 05-10-2019 00:00:00 11.8 C 9.89 g/m*3 11.8 C 11.3 km/h
578 05-10-2019 00:05:00 11.8 C 9.89 g/m*3 11.8 C 6.4 km/h
579 05-10-2019 00:10:00 11.8 C 9.89 g/m*3 11.8 C 3.2 km/h
580 05-10-2019 00:15:00 11.9 C 9.96 g/m*3 11.9 C 4.8 km/h
581 05-10-2019 00:20:00 11.9 C 9.85 g/m*3 11.9 C 6.4 km/h
582 05-10-2019 00:25:00 11.9 C 9.74 g/m*3 11.9 C 11.3 km/h
583 05-10-2019 00:30:00 12 C 9.8 g/m*3 12 C 3.2 km/h
584 05-10-2019 00:35:00 12 C 9.8 g/m*3 12 C 6.4 km/h
585 05-10-2019 00:40:00 12.1 C 9.87 g/m*3 12.1 C 9.7 km/h
586 05-10-2019 00:45:00 12.1 C 9.87 g/m*3 12.1 C 4.8 km/h
587 05-10-2019 00:50:00 12.1 C 9.87 g/m*3 12.1 C 8.1 km/h
588 05-10-2019 00:55:00 12.2 C 9.82 g/m*3 12.2 C 9.7 km/h
589 05-10-2019 01:00:00 12.2 C 9.93 g/m*3 12.2 C 11.3 km/h
590 05-10-2019 01:05:00 12.3 C 9.99 g/m*3 12.3 C 9.7 km/h
591 05-10-2019 01:10:00 12.3 C 9.99 g/m*3 12.3 C 1.6 km/h
592 05-10-2019 01:15:00 12.2 C 9.93 g/m*3 12.2 C 1.6 km/h
593 05-10-2019 01:20:00 12.2 C 9.93 g/m*3 12.2 C 1.6 km/h
594 05-10-2019 01:25:00 12.1 C 9.87 g/m*3 12.1 C 11.3 km/h
595 05-10-2019 01:30:00 12 C 9.8 g/m*3 12 C 9.7 km/h
596 05-10-2019 01:35:00 11.9 C 9.74 g/m*3 11.9 C 1.6 km/h
597 05-10-2019 01:40:00 11.9 C 9.74 g/m*3 11.9 C 6.4 km/h
598 05-10-2019 01:45:00 11.9 C 9.74 g/m*3 11.9 C 11.3 km/h
599 05-10-2019 01:50:00 12 C 9.8 g/m*3 12 C 8.1 km/h
600 05-10-2019 01:55:00 12.1 C 9.87 g/m*3 12.1 C 8.1 km/h
Sensor: Nr:Datum:Temp:Abs-Feuchte:Windchill:Wind:
Aussen-T/F 601 05-10-2019 02:00:00 12 C 9.8 g/m*3 12 C 3.2 km/h
602 05-10-2019 02:05:00 11.9 C 9.74 g/m*3 11.9 C 4.8 km/h
603 05-10-2019 02:10:00 12 C 9.8 g/m*3 12 C 9.7 km/h
604 05-10-2019 02:15:00 12.1 C 9.76 g/m*3 12.1 C 14.5 km/h
605 05-10-2019 02:20:00 12.2 C 9.82 g/m*3 12.2 C 6.4 km/h
606 05-10-2019 02:25:00 12.2 C 9.82 g/m*3 12.2 C 11.3 km/h
607 05-10-2019 02:30:00 12.3 C 9.77 g/m*3 12.3 C 4.8 km/h
608 05-10-2019 02:35:00 12.3 C 9.88 g/m*3 12.3 C 3.2 km/h
609 05-10-2019 02:40:00 12.3 C 9.77 g/m*3 12.3 C 11.3 km/h
610 05-10-2019 02:45:00 12.4 C 9.72 g/m*3 12.4 C 6.4 km/h
611 05-10-2019 02:50:00 12.5 C 9.78 g/m*3 12.5 C 3.2 km/h
612 05-10-2019 02:55:00 12.5 C 9.89 g/m*3 12.5 C 12.9 km/h
613 05-10-2019 03:00:00 12.5 C 9.78 g/m*3 12.5 C 14.5 km/h
614 05-10-2019 03:05:00 12.5 C 9.89 g/m*3 12.5 C 4.8 km/h
615 05-10-2019 03:10:00 12.5 C 9.89 g/m*3 12.5 C 4.8 km/h
616 05-10-2019 03:15:00 12.4 C 9.94 g/m*3 12.4 C 4.8 km/h
617 05-10-2019 03:20:00 12.4 C 9.94 g/m*3 12.4 C 1.6 km/h
618 05-10-2019 03:25:00 12.3 C 9.99 g/m*3 12.3 C 1.6 km/h
619 05-10-2019 03:30:00 12.3 C 9.99 g/m*3 12.3 C 0 km/h
620 05-10-2019 03:35:00 12.2 C 9.93 g/m*3 12.2 C 0 km/h
621 05-10-2019 03:40:00 12.2 C 10.04 g/m*3 12.2 C 0 km/h
622 05-10-2019 03:45:00 12.1 C 9.97 g/m*3 12.1 C 0 km/h
623 05-10-2019 03:50:00 12.1 C 9.97 g/m*3 12.1 C 0 km/h
624 05-10-2019 03:55:00 12.1 C 9.97 g/m*3 12.1 C 6.4 km/h
625 05-10-2019 04:00:00 12 C 9.91 g/m*3 12 C 8.1 km/h
Sensor: Nr:Datum:Temp:Abs-Feuchte:Windchill:Wind:
Aussen-T/F 626 05-10-2019 04:05:00 11.9 C 9.85 g/m*3 11.9 C 4.8 km/h
627 05-10-2019 04:10:00 11.8 C 9.79 g/m*3 11.8 C 9.7 km/h
628 05-10-2019 04:15:00 11.7 C 9.73 g/m*3 11.7 C 3.2 km/h
629 05-10-2019 04:20:00 11.6 C 9.67 g/m*3 11.6 C 4.8 km/h
630 05-10-2019 04:25:00 11.6 C 9.67 g/m*3 11.6 C 6.4 km/h
631 05-10-2019 04:30:00 11.5 C 9.61 g/m*3 11.5 C 0 km/h
632 05-10-2019 04:35:00 11.4 C 9.55 g/m*3 11.4 C 9.7 km/h
633 05-10-2019 04:40:00 11.3 C 9.49 g/m*3 11.3 C 8.1 km/h
634 05-10-2019 04:45:00 11.3 C 9.49 g/m*3 11.3 C 4.8 km/h
635 05-10-2019 04:50:00 11.3 C 9.49 g/m*3 11.3 C 8.1 km/h
636 05-10-2019 04:55:00 11.2 C 9.53 g/m*3 11.2 C 3.2 km/h
637 05-10-2019 05:00:00 11.2 C 9.43 g/m*3 11.2 C 11.3 km/h
638 05-10-2019 05:05:00 11.1 C 9.37 g/m*3 11.1 C 8.1 km/h
639 05-10-2019 05:10:00 11 C 9.31 g/m*3 10.52 C 6.4 km/h
640 05-10-2019 05:15:00 10.9 C 9.25 g/m*3 10.41 C 6.4 km/h
641 05-10-2019 05:20:00 10.8 C 9.29 g/m*3 9.93 C 8.1 km/h
642 05-10-2019 05:25:00 10.8 C 9.29 g/m*3 10.8 C 4.8 km/h
643 05-10-2019 05:30:00 10.8 C 9.19 g/m*3 9.93 C 8.1 km/h
644 05-10-2019 05:35:00 10.7 C 9.23 g/m*3 10.7 C 3.2 km/h
645 05-10-2019 05:40:00 10.6 C 9.17 g/m*3 9.14 C 11.3 km/h
646 05-10-2019 05:45:00 10.5 C 9.12 g/m*3 10.5 C 3.2 km/h
647 05-10-2019 05:50:00 10.4 C 8.96 g/m*3 9.83 C 6.4 km/h
648 05-10-2019 05:55:00 10.3 C 8.91 g/m*3 10.3 C 0 km/h
649 05-10-2019 06:00:00 10.3 C 8.91 g/m*3 10.3 C 1.6 km/h
650 05-10-2019 06:05:00 10.3 C 8.91 g/m*3 10.3 C 0 km/h
Sensor: Nr:Datum:Temp:Abs-Feuchte:Windchill:Wind:
Aussen-T/F 651 05-10-2019 06:10:00 10.3 C 9 g/m*3 10.3 C 1.6 km/h
652 05-10-2019 06:15:00 10.2 C 8.95 g/m*3 10.2 C 3.2 km/h
653 05-10-2019 06:20:00 10.2 C 8.95 g/m*3 9.22 C 8.1 km/h
654 05-10-2019 06:25:00 10.2 C 8.95 g/m*3 10.2 C 4.8 km/h
655 05-10-2019 06:30:00 10.2 C 8.95 g/m*3 10.2 C 3.2 km/h
656 05-10-2019 06:35:00 10.2 C 8.95 g/m*3 10.2 C 4.8 km/h
657 05-10-2019 06:40:00 10.1 C 8.89 g/m*3 10.1 C 0 km/h
658 05-10-2019 06:45:00 10.2 C 8.95 g/m*3 10.2 C 0 km/h
659 05-10-2019 06:50:00 10.2 C 8.95 g/m*3 10.2 C 0 km/h
660 05-10-2019 06:55:00 10.1 C 8.89 g/m*3 10.1 C 0 km/h
661 05-10-2019 07:00:00 10.1 C 8.89 g/m*3 10.1 C 3.2 km/h
662 05-10-2019 07:05:00 10.1 C 8.89 g/m*3 10.1 C 4.8 km/h
663 05-10-2019 07:10:00 10.1 C 8.89 g/m*3 10.1 C 0 km/h
664 05-10-2019 07:15:00 10.1 C 8.89 g/m*3 9.48 C 6.4 km/h
665 05-10-2019 07:20:00 10.1 C 8.89 g/m*3 10.1 C 4.8 km/h
666 05-10-2019 07:25:00 10.1 C 8.79 g/m*3 10.1 C 3.2 km/h
667 05-10-2019 07:30:00 9.9 C 8.68 g/m*3 9.25 C 6.4 km/h
668 05-10-2019 07:35:00 9.9 C 8.68 g/m*3 9.9 C 0 km/h
669 05-10-2019 07:40:00 9.9 C 8.68 g/m*3 9.9 C 1.6 km/h
670 05-10-2019 07:45:00 9.9 C 8.68 g/m*3 9.25 C 6.4 km/h
671 05-10-2019 07:50:00 9.8 C 8.63 g/m*3 9.14 C 6.4 km/h
672 05-10-2019 07:55:00 9.8 C 8.63 g/m*3 9.8 C 0 km/h
673 05-10-2019 08:00:00 9.8 C 8.63 g/m*3 9.8 C 1.6 km/h
674 05-10-2019 08:05:00 9.8 C 8.63 g/m*3 9.8 C 4.8 km/h
675 05-10-2019 08:10:00 9.7 C 8.48 g/m*3 9.7 C 4.8 km/h
Sensor: Nr:Datum:Temp:Abs-Feuchte:Windchill:Wind:
Aussen-T/F 676 05-10-2019 08:15:00 9.8 C 8.54 g/m*3 9.8 C 1.6 km/h
677 05-10-2019 08:20:00 9.8 C 8.54 g/m*3 9.8 C 1.6 km/h
678 05-10-2019 08:25:00 9.7 C 8.48 g/m*3 9.7 C 1.6 km/h
679 05-10-2019 08:30:00 9.8 C 8.54 g/m*3 9.8 C 4.8 km/h
680 05-10-2019 08:35:00 9.8 C 8.54 g/m*3 9.8 C 0 km/h
681 05-10-2019 08:40:00 9.9 C 8.59 g/m*3 9.9 C 0 km/h
682 05-10-2019 08:45:00 9.9 C 8.5 g/m*3 9.9 C 4.8 km/h
683 05-10-2019 08:50:00 9.9 C 8.5 g/m*3 9.9 C 1.6 km/h
684 05-10-2019 08:55:00 9.9 C 8.5 g/m*3 9.9 C 0 km/h
685 05-10-2019 09:00:00 10 C 8.55 g/m*3 10 C 1.6 km/h
686 05-10-2019 09:05:00 10.1 C 8.61 g/m*3 10.1 C 3.2 km/h
687 05-10-2019 09:10:00 10.1 C 8.61 g/m*3 10.1 C 3.2 km/h
688 05-10-2019 09:15:00 10.1 C 8.61 g/m*3 9.48 C 6.4 km/h
689 05-10-2019 09:20:00 10.1 C 8.61 g/m*3 10.1 C 3.2 km/h
690 05-10-2019 09:25:00 10.2 C 8.66 g/m*3 10.2 C 4.8 km/h
691 05-10-2019 09:30:00 10.2 C 8.66 g/m*3 9.6 C 6.4 km/h
692 05-10-2019 09:35:00 10.2 C 8.56 g/m*3 9.22 C 8.1 km/h
693 05-10-2019 09:40:00 10.3 C 8.71 g/m*3 9.72 C 6.4 km/h
694 05-10-2019 09:45:00 10.3 C 8.62 g/m*3 10.3 C 4.8 km/h
695 05-10-2019 09:50:00 10.3 C 8.62 g/m*3 10.3 C 4.8 km/h
696 05-10-2019 09:55:00 10.3 C 8.62 g/m*3 9.72 C 6.4 km/h
697 05-10-2019 10:00:00 10.4 C 8.67 g/m*3 10.4 C 4.8 km/h
698 05-10-2019 10:05:00 10.4 C 8.67 g/m*3 9.83 C 6.4 km/h
699 05-10-2019 10:10:00 10.4 C 8.67 g/m*3 10.4 C 4.8 km/h
700 05-10-2019 10:15:00 10.4 C 8.67 g/m*3 9.83 C 6.4 km/h
Sensor: Nr:Datum:Temp:Abs-Feuchte:Windchill:Wind:
Aussen-T/F 701 05-10-2019 10:20:00 10.5 C 8.63 g/m*3 9.95 C 6.4 km/h
702 05-10-2019 10:25:00 10.6 C 8.59 g/m*3 9.4 C 9.7 km/h
703 05-10-2019 10:30:00 10.6 C 8.69 g/m*3 9.4 C 9.7 km/h
704 05-10-2019 10:35:00 10.6 C 8.59 g/m*3 8.92 C 12.9 km/h
705 05-10-2019 10:40:00 10.7 C 8.64 g/m*3 9.04 C 12.9 km/h
706 05-10-2019 10:45:00 10.7 C 8.55 g/m*3 9.52 C 9.7 km/h
707 05-10-2019 10:50:00 10.7 C 8.45 g/m*3 9.81 C 8.1 km/h
708 05-10-2019 10:55:00 10.7 C 8.45 g/m*3 9.81 C 8.1 km/h
709 05-10-2019 11:00:00 10.7 C 8.25 g/m*3 9.81 C 8.1 km/h
710 05-10-2019 11:05:00 10.7 C 8.15 g/m*3 10.18 C 6.4 km/h
711 05-10-2019 11:10:00 10.8 C 8.2 g/m*3 10.29 C 6.4 km/h
712 05-10-2019 11:15:00 10.7 C 8.05 g/m*3 9.52 C 9.7 km/h
713 05-10-2019 11:20:00 10.7 C 8.05 g/m*3 9.52 C 9.7 km/h
714 05-10-2019 11:25:00 10.7 C 8.05 g/m*3 9.52 C 9.7 km/h
715 05-10-2019 11:30:00 10.7 C 7.96 g/m*3 9.52 C 9.7 km/h
716 05-10-2019 11:35:00 10.7 C 8.05 g/m*3 9.52 C 9.7 km/h
717 05-10-2019 11:40:00 10.7 C 8.15 g/m*3 9.81 C 8.1 km/h
718 05-10-2019 11:45:00 10.7 C 8.15 g/m*3 10.18 C 6.4 km/h
719 05-10-2019 11:50:00 10.7 C 8.05 g/m*3 9.81 C 8.1 km/h
720 05-10-2019 11:55:00 10.7 C 8.15 g/m*3 9.26 C 11.3 km/h
721 05-10-2019 12:00:00 10.7 C 8.25 g/m*3 9.52 C 9.7 km/h
722 05-10-2019 12:05:00 10.8 C 8.3 g/m*3 9.64 C 9.7 km/h
723 05-10-2019 12:10:00 11 C 8.41 g/m*3 10.16 C 8.1 km/h
724 05-10-2019 12:15:00 11.1 C 8.36 g/m*3 11.1 C 6.4 km/h
725 05-10-2019 12:20:00 11.2 C 8.21 g/m*3 11.2 C 9.7 km/h
Sensor: Nr:Datum:Temp:Abs-Feuchte:Windchill:Wind:
Aussen-T/F 726 05-10-2019 12:25:00 11.2 C 8.11 g/m*3 11.2 C 6.4 km/h
727 05-10-2019 12:30:00 11.2 C 8.01 g/m*3 11.2 C 6.4 km/h
728 05-10-2019 12:35:00 11.2 C 8.01 g/m*3 11.2 C 3.2 km/h
729 05-10-2019 12:40:00 11.3 C 8.16 g/m*3 11.3 C 4.8 km/h
730 05-10-2019 12:45:00 11.4 C 7.9 g/m*3 11.4 C 8.1 km/h
731 05-10-2019 12:50:00 11.6 C 8.11 g/m*3 11.6 C 3.2 km/h
732 05-10-2019 12:55:00 11.7 C 8.16 g/m*3 11.7 C 3.2 km/h
733 05-10-2019 13:00:00 11.7 C 8.16 g/m*3 11.7 C 6.4 km/h
734 05-10-2019 13:05:00 11.7 C 8.16 g/m*3 11.7 C 4.8 km/h
735 05-10-2019 13:10:00 11.7 C 8.05 g/m*3 11.7 C 3.2 km/h
736 05-10-2019 13:15:00 11.8 C 8.21 g/m*3 11.8 C 6.4 km/h
737 05-10-2019 13:20:00 11.9 C 8.26 g/m*3 11.9 C 6.4 km/h
738 05-10-2019 13:25:00 11.9 C 8.26 g/m*3 11.9 C 4.8 km/h
739 05-10-2019 13:30:00 12 C 8.21 g/m*3 12 C 3.2 km/h
740 05-10-2019 13:35:00 12 C 8.1 g/m*3 12 C 3.2 km/h
741 05-10-2019 13:40:00 12 C 8.31 g/m*3 12 C 0 km/h
742 05-10-2019 13:45:00 12.1 C 8.36 g/m*3 12.1 C 4.8 km/h
743 05-10-2019 13:50:00 12 C 8.21 g/m*3 12 C 3.2 km/h
744 05-10-2019 13:55:00 12 C 8.31 g/m*3 12 C 4.8 km/h
745 05-10-2019 14:00:00 11.9 C 8.15 g/m*3 11.9 C 6.4 km/h
746 05-10-2019 14:05:00 11.9 C 8.26 g/m*3 11.9 C 3.2 km/h
747 05-10-2019 14:10:00 11.9 C 8.26 g/m*3 11.9 C 4.8 km/h
748 05-10-2019 14:15:00 11.8 C 8.21 g/m*3 11.8 C 8.1 km/h
749 05-10-2019 14:20:00 11.8 C 8.31 g/m*3 11.8 C 1.6 km/h
750 05-10-2019 14:25:00 11.8 C 8.31 g/m*3 11.8 C 1.6 km/h
Sensor: Nr:Datum:Temp:Abs-Feuchte:Windchill:Wind:
Aussen-T/F 751 05-10-2019 14:30:00 11.8 C 8.21 g/m*3 11.8 C 3.2 km/h
752 05-10-2019 14:35:00 11.8 C 8.21 g/m*3 11.8 C 0 km/h
753 05-10-2019 14:40:00 11.9 C 8.26 g/m*3 11.9 C 0 km/h
754 05-10-2019 14:45:00 11.9 C 8.26 g/m*3 11.9 C 0 km/h
755 05-10-2019 14:50:00 12.1 C 8.26 g/m*3 12.1 C 0 km/h
756 05-10-2019 14:55:00 12.1 C 8.47 g/m*3 12.1 C 0 km/h
757 05-10-2019 15:00:00 12.2 C 8.63 g/m*3 12.2 C 0 km/h
758 05-10-2019 15:05:00 12.3 C 8.47 g/m*3 12.3 C 1.6 km/h
759 05-10-2019 15:10:00 12.3 C 8.36 g/m*3 12.3 C 3.2 km/h
760 05-10-2019 15:15:00 12.2 C 8.31 g/m*3 12.2 C 1.6 km/h
761 05-10-2019 15:20:00 12.2 C 8.31 g/m*3 12.2 C 3.2 km/h
762 05-10-2019 15:25:00 12.2 C 8.2 g/m*3 12.2 C 1.6 km/h
763 05-10-2019 15:30:00 12.2 C 8.31 g/m*3 12.2 C 0 km/h
764 05-10-2019 15:35:00 12.2 C 8.2 g/m*3 12.2 C 0 km/h
765 05-10-2019 15:40:00 12.2 C 8.31 g/m*3 12.2 C 0 km/h
766 05-10-2019 15:45:00 12.2 C 8.42 g/m*3 12.2 C 0 km/h
767 05-10-2019 15:50:00 12.3 C 8.36 g/m*3 12.3 C 0 km/h
768 05-10-2019 15:55:00 12.3 C 8.47 g/m*3 12.3 C 0 km/h
769 05-10-2019 16:00:00 12.3 C 8.36 g/m*3 12.3 C 6.4 km/h
770 05-10-2019 16:05:00 12.3 C 8.36 g/m*3 12.3 C 1.6 km/h
771 05-10-2019 16:10:00 12.3 C 8.47 g/m*3 12.3 C 0 km/h
772 05-10-2019 16:15:00 12.3 C 8.8 g/m*3 12.3 C 0 km/h
773 05-10-2019 16:20:00 12.3 C 8.69 g/m*3 12.3 C 0 km/h
774 05-10-2019 16:25:00 12.3 C 8.58 g/m*3 12.3 C 0 km/h
775 05-10-2019 16:30:00 12.3 C 8.69 g/m*3 12.3 C 0 km/h
Sensor: Nr:Datum:Temp:Abs-Feuchte:Windchill:Wind:
Aussen-T/F 776 05-10-2019 16:35:00 12.3 C 8.8 g/m*3 12.3 C 0 km/h
777 05-10-2019 16:40:00 12.3 C 8.9 g/m*3 12.3 C 0 km/h
778 05-10-2019 16:45:00 12.3 C 9.01 g/m*3 12.3 C 0 km/h
779 05-10-2019 16:50:00 12.3 C 9.12 g/m*3 12.3 C 0 km/h
780 05-10-2019 16:55:00 12.3 C 9.23 g/m*3 12.3 C 0 km/h
781 05-10-2019 17:00:00 12.3 C 9.23 g/m*3 12.3 C 0 km/h
782 05-10-2019 17:05:00 12.3 C 9.23 g/m*3 12.3 C 0 km/h
783 05-10-2019 17:10:00 12.3 C 9.34 g/m*3 12.3 C 0 km/h
784 05-10-2019 17:15:00 12.2 C 9.17 g/m*3 12.2 C 1.6 km/h
785 05-10-2019 17:20:00 12.1 C 8.79 g/m*3 12.1 C 0 km/h
786 05-10-2019 17:25:00 12.1 C 8.9 g/m*3 12.1 C 0 km/h
787 05-10-2019 17:30:00 12 C 8.74 g/m*3 12 C 0 km/h
788 05-10-2019 17:35:00 12 C 8.95 g/m*3 12 C 0 km/h
789 05-10-2019 17:40:00 11.9 C 8.9 g/m*3 11.9 C 0 km/h
790 05-10-2019 17:45:00 11.9 C 8.79 g/m*3 11.9 C 0 km/h
791 05-10-2019 17:50:00 11.9 C 9 g/m*3 11.9 C 0 km/h
792 05-10-2019 17:55:00 11.8 C 8.95 g/m*3 11.8 C 0 km/h
793 05-10-2019 18:00:00 11.8 C 8.95 g/m*3 11.8 C 0 km/h
794 05-10-2019 18:05:00 11.7 C 8.89 g/m*3 11.7 C 0 km/h
795 05-10-2019 18:10:00 11.5 C 8.78 g/m*3 11.5 C 0 km/h
796 05-10-2019 18:15:00 11.4 C 8.72 g/m*3 11.4 C 0 km/h
797 05-10-2019 18:20:00 11.3 C 8.77 g/m*3 11.3 C 0 km/h
798 05-10-2019 18:25:00 11.2 C 8.62 g/m*3 11.2 C 0 km/h
799 05-10-2019 18:30:00 11.1 C 8.66 g/m*3 11.1 C 0 km/h
800 05-10-2019 18:35:00 11 C 8.61 g/m*3 11 C 0 km/h
Sensor: Nr:Datum:Temp:Abs-Feuchte:Windchill:Wind:
Aussen-T/F 801 05-10-2019 18:40:00 10.8 C 8.5 g/m*3 10.8 C 0 km/h
802 05-10-2019 18:45:00 10.7 C 8.45 g/m*3 10.7 C 0 km/h
803 05-10-2019 18:50:00 10.6 C 8.49 g/m*3 10.6 C 0 km/h
804 05-10-2019 18:55:00 10.4 C 8.29 g/m*3 10.4 C 0 km/h
805 05-10-2019 19:00:00 10.3 C 8.24 g/m*3 10.3 C 0 km/h
806 05-10-2019 19:05:00 10.1 C 8.13 g/m*3 10.1 C 0 km/h
807 05-10-2019 19:10:00 9.9 C 8.03 g/m*3 9.9 C 0 km/h
808 05-10-2019 19:15:00 9.8 C 8.07 g/m*3 9.8 C 0 km/h
809 05-10-2019 19:20:00 9.7 C 8.02 g/m*3 9.7 C 0 km/h
810 05-10-2019 19:25:00 9.6 C 7.97 g/m*3 9.6 C 0 km/h
811 05-10-2019 19:30:00 9.4 C 7.87 g/m*3 9.4 C 0 km/h
812 05-10-2019 19:35:00 9.3 C 7.82 g/m*3 9.3 C 1.6 km/h
813 05-10-2019 19:40:00 9.2 C 7.68 g/m*3 9.2 C 1.6 km/h
814 05-10-2019 19:45:00 9.1 C 7.63 g/m*3 9.1 C 1.6 km/h
815 05-10-2019 19:50:00 8.9 C 7.53 g/m*3 8.9 C 0 km/h
816 05-10-2019 19:55:00 8.8 C 7.49 g/m*3 8.8 C 0 km/h
817 05-10-2019 20:00:00 8.7 C 7.52 g/m*3 8.7 C 0 km/h
818 05-10-2019 20:05:00 8.4 C 7.38 g/m*3 8.4 C 0 km/h
819 05-10-2019 20:10:00 8.3 C 7.33 g/m*3 8.3 C 3.2 km/h
820 05-10-2019 20:15:00 8.3 C 7.42 g/m*3 8.3 C 3.2 km/h
821 05-10-2019 20:20:00 8.3 C 7.42 g/m*3 8.3 C 3.2 km/h
822 05-10-2019 20:25:00 8.3 C 7.42 g/m*3 8.3 C 1.6 km/h
823 05-10-2019 20:30:00 8.3 C 7.42 g/m*3 8.3 C 1.6 km/h
824 05-10-2019 20:35:00 8.3 C 7.5 g/m*3 8.3 C 1.6 km/h
825 05-10-2019 20:40:00 8.3 C 7.5 g/m*3 8.3 C 1.6 km/h
Sensor: Nr:Datum:Temp:Abs-Feuchte:Windchill:Wind:
Aussen-T/F 826 05-10-2019 20:45:00 8.4 C 7.55 g/m*3 8.4 C 0 km/h
827 05-10-2019 20:50:00 8.4 C 7.55 g/m*3 8.4 C 0 km/h
828 05-10-2019 20:55:00 8.3 C 7.5 g/m*3 8.3 C 0 km/h
829 05-10-2019 21:00:00 8.3 C 7.5 g/m*3 8.3 C 0 km/h
830 05-10-2019 21:05:00 8.3 C 7.5 g/m*3 8.3 C 0 km/h
831 05-10-2019 21:10:00 8.2 C 7.54 g/m*3 8.2 C 0 km/h
832 05-10-2019 21:15:00 8.1 C 7.49 g/m*3 8.1 C 0 km/h
833 05-10-2019 21:20:00 8 C 7.52 g/m*3 8 C 0 km/h
834 05-10-2019 21:25:00 7.9 C 7.47 g/m*3 7.9 C 0 km/h
835 05-10-2019 21:30:00 7.8 C 7.43 g/m*3 7.8 C 0 km/h
836 05-10-2019 21:35:00 7.7 C 7.38 g/m*3 7.7 C 0 km/h
837 05-10-2019 21:40:00 7.6 C 7.33 g/m*3 7.6 C 0 km/h
838 05-10-2019 21:45:00 7.6 C 7.33 g/m*3 7.6 C 0 km/h
839 05-10-2019 21:50:00 7.5 C 7.36 g/m*3 7.5 C 0 km/h
840 05-10-2019 21:55:00 7.5 C 7.36 g/m*3 7.5 C 0 km/h
841 05-10-2019 22:00:00 7.4 C 7.32 g/m*3 7.4 C 0 km/h
842 05-10-2019 22:05:00 7.4 C 7.4 g/m*3 7.4 C 0 km/h
843 05-10-2019 22:10:00 7.5 C 7.44 g/m*3 7.5 C 0 km/h
844 05-10-2019 22:15:00 7.4 C 7.4 g/m*3 7.4 C 0 km/h
845 05-10-2019 22:20:00 7.4 C 7.4 g/m*3 7.4 C 0 km/h
846 05-10-2019 22:25:00 7.4 C 7.4 g/m*3 7.4 C 0 km/h
847 05-10-2019 22:30:00 7.4 C 7.4 g/m*3 7.4 C 0 km/h
848 05-10-2019 22:35:00 7.4 C 7.48 g/m*3 7.4 C 0 km/h
849 05-10-2019 22:40:00 7.5 C 7.52 g/m*3 7.5 C 0 km/h
850 05-10-2019 22:45:00 7.5 C 7.52 g/m*3 7.5 C 0 km/h
Sensor: Nr:Datum:Temp:Abs-Feuchte:Windchill:Wind:
Aussen-T/F 851 05-10-2019 22:50:00 7.5 C 7.52 g/m*3 7.5 C 0 km/h
852 05-10-2019 22:55:00 7.4 C 7.48 g/m*3 7.4 C 0 km/h
853 05-10-2019 23:00:00 7.4 C 7.48 g/m*3 7.4 C 0 km/h
854 05-10-2019 23:05:00 7.4 C 7.48 g/m*3 7.4 C 0 km/h
855 05-10-2019 23:10:00 7.3 C 7.43 g/m*3 7.3 C 0 km/h
856 05-10-2019 23:15:00 7.3 C 7.43 g/m*3 7.3 C 0 km/h
857 05-10-2019 23:20:00 7.3 C 7.43 g/m*3 7.3 C 0 km/h
858 05-10-2019 23:25:00 7.3 C 7.43 g/m*3 7.3 C 0 km/h
859 05-10-2019 23:30:00 7.3 C 7.43 g/m*3 7.3 C 0 km/h
860 05-10-2019 23:35:00 7.3 C 7.43 g/m*3 7.3 C 0 km/h
861 05-10-2019 23:40:00 7.4 C 7.48 g/m*3 7.4 C 0 km/h
862 05-10-2019 23:45:00 7.4 C 7.48 g/m*3 7.4 C 0 km/h
863 05-10-2019 23:50:00 7.4 C 7.48 g/m*3 7.4 C 0 km/h
864 05-10-2019 23:55:00 7.4 C 7.48 g/m*3 7.4 C 0 km/h
865 06-10-2019 00:00:00 7.4 C 7.55 g/m*3 7.4 C 0 km/h
866 06-10-2019 00:05:00 7.4 C 7.48 g/m*3 7.4 C 0 km/h
867 06-10-2019 00:10:00 7.4 C 7.48 g/m*3 7.4 C 0 km/h
868 06-10-2019 00:15:00 7.3 C 7.43 g/m*3 7.3 C 0 km/h
869 06-10-2019 00:20:00 7.3 C 7.43 g/m*3 7.3 C 0 km/h
870 06-10-2019 00:25:00 7.2 C 7.38 g/m*3 7.2 C 0 km/h
871 06-10-2019 00:30:00 7.1 C 7.33 g/m*3 7.1 C 0 km/h
872 06-10-2019 00:35:00 7 C 7.28 g/m*3 7 C 0 km/h
873 06-10-2019 00:40:00 6.9 C 7.24 g/m*3 6.9 C 0 km/h
874 06-10-2019 00:45:00 6.9 C 7.24 g/m*3 6.9 C 0 km/h
875 06-10-2019 00:50:00 6.9 C 7.24 g/m*3 6.9 C 0 km/h
Sensor: Nr:Datum:Temp:Abs-Feuchte:Windchill:Wind:
Aussen-T/F 876 06-10-2019 00:55:00 6.8 C 7.27 g/m*3 6.8 C 0 km/h
877 06-10-2019 01:00:00 6.8 C 7.27 g/m*3 6.8 C 0 km/h
878 06-10-2019 01:05:00 6.8 C 7.27 g/m*3 6.8 C 0 km/h
879 06-10-2019 01:10:00 6.8 C 7.19 g/m*3 6.8 C 0 km/h
880 06-10-2019 01:15:00 6.7 C 7.14 g/m*3 6.7 C 0 km/h
881 06-10-2019 01:20:00 6.6 C 7.1 g/m*3 6.6 C 0 km/h
882 06-10-2019 01:25:00 6.5 C 7.05 g/m*3 6.5 C 0 km/h
883 06-10-2019 01:30:00 6.4 C 7 g/m*3 6.4 C 0 km/h
884 06-10-2019 01:35:00 6.4 C 7 g/m*3 6.4 C 0 km/h
885 06-10-2019 01:40:00 6.4 C 7.08 g/m*3 6.4 C 0 km/h
886 06-10-2019 01:45:00 6.4 C 7.08 g/m*3 6.4 C 0 km/h
887 06-10-2019 01:50:00 6.4 C 7.08 g/m*3 6.4 C 0 km/h
888 06-10-2019 01:55:00 6.4 C 7.08 g/m*3 6.4 C 0 km/h
889 06-10-2019 02:00:00 6.5 C 7.12 g/m*3 6.5 C 0 km/h
890 06-10-2019 02:05:00 6.5 C 7.12 g/m*3 6.5 C 0 km/h
891 06-10-2019 02:10:00 6.6 C 7.17 g/m*3 6.6 C 0 km/h
892 06-10-2019 02:15:00 6.6 C 7.17 g/m*3 6.6 C 0 km/h
893 06-10-2019 02:20:00 6.6 C 7.17 g/m*3 6.6 C 0 km/h
894 06-10-2019 02:25:00 6.7 C 7.22 g/m*3 6.7 C 0 km/h
895 06-10-2019 02:30:00 6.7 C 7.29 g/m*3 6.7 C 0 km/h
896 06-10-2019 02:35:00 6.8 C 7.34 g/m*3 6.8 C 0 km/h
897 06-10-2019 02:40:00 6.8 C 7.34 g/m*3 6.8 C 0 km/h
898 06-10-2019 02:45:00 6.8 C 7.34 g/m*3 6.8 C 0 km/h
899 06-10-2019 02:50:00 6.9 C 7.39 g/m*3 6.9 C 0 km/h
900 06-10-2019 02:55:00 6.9 C 7.39 g/m*3 6.9 C 0 km/h
Sensor: Nr:Datum:Temp:Abs-Feuchte:Windchill:Wind:
Aussen-T/F 901 06-10-2019 03:00:00 6.9 C 7.39 g/m*3 6.9 C 0 km/h
902 06-10-2019 03:05:00 6.9 C 7.39 g/m*3 6.9 C 0 km/h
903 06-10-2019 03:10:00 7 C 7.44 g/m*3 7 C 0 km/h
904 06-10-2019 03:15:00 7 C 7.44 g/m*3 7 C 0 km/h
905 06-10-2019 03:20:00 7.1 C 7.49 g/m*3 7.1 C 0 km/h
906 06-10-2019 03:25:00 7.1 C 7.49 g/m*3 7.1 C 0 km/h
907 06-10-2019 03:30:00 7.1 C 7.49 g/m*3 7.1 C 0 km/h
908 06-10-2019 03:35:00 7.1 C 7.49 g/m*3 7.1 C 0 km/h
909 06-10-2019 03:40:00 7.1 C 7.49 g/m*3 7.1 C 0 km/h
910 06-10-2019 03:45:00 7.1 C 7.49 g/m*3 7.1 C 0 km/h
911 06-10-2019 03:50:00 7.1 C 7.49 g/m*3 7.1 C 0 km/h
912 06-10-2019 03:55:00 7.2 C 7.54 g/m*3 7.2 C 0 km/h
913 06-10-2019 04:00:00 7.2 C 7.54 g/m*3 7.2 C 0 km/h
914 06-10-2019 04:05:00 7.2 C 7.54 g/m*3 7.2 C 0 km/h
915 06-10-2019 04:10:00 7.2 C 7.54 g/m*3 7.2 C 0 km/h
916 06-10-2019 04:15:00 7.2 C 7.54 g/m*3 7.2 C 0 km/h
917 06-10-2019 04:20:00 7.2 C 7.54 g/m*3 7.2 C 0 km/h
918 06-10-2019 04:25:00 7.2 C 7.54 g/m*3 7.2 C 0 km/h
919 06-10-2019 04:30:00 7.2 C 7.54 g/m*3 7.2 C 0 km/h
920 06-10-2019 04:35:00 7.2 C 7.54 g/m*3 7.2 C 0 km/h
921 06-10-2019 04:40:00 7.2 C 7.54 g/m*3 7.2 C 0 km/h
922 06-10-2019 04:45:00 7.2 C 7.54 g/m*3 7.2 C 0 km/h
923 06-10-2019 04:50:00 7.2 C 7.54 g/m*3 7.2 C 0 km/h
924 06-10-2019 04:55:00 7.2 C 7.54 g/m*3 7.2 C 0 km/h
925 06-10-2019 05:00:00 7.1 C 7.49 g/m*3 7.1 C 0 km/h
Sensor: Nr:Datum:Temp:Abs-Feuchte:Windchill:Wind:
Aussen-T/F 926 06-10-2019 05:05:00 7.1 C 7.49 g/m*3 7.1 C 0 km/h
927 06-10-2019 05:10:00 7.1 C 7.49 g/m*3 7.1 C 0 km/h
928 06-10-2019 05:15:00 7.2 C 7.54 g/m*3 7.2 C 0 km/h
929 06-10-2019 05:20:00 7.2 C 7.54 g/m*3 7.2 C 0 km/h
930 06-10-2019 05:25:00 7.2 C 7.54 g/m*3 7.2 C 0 km/h
931 06-10-2019 05:30:00 7.2 C 7.54 g/m*3 7.2 C 0 km/h
932 06-10-2019 05:35:00 7.2 C 7.54 g/m*3 7.2 C 0 km/h
933 06-10-2019 05:40:00 7.2 C 7.54 g/m*3 7.2 C 0 km/h
934 06-10-2019 05:45:00 7.2 C 7.54 g/m*3 7.2 C 0 km/h
935 06-10-2019 05:50:00 7.3 C 7.58 g/m*3 7.3 C 0 km/h
936 06-10-2019 05:55:00 7.2 C 7.54 g/m*3 7.2 C 0 km/h
937 06-10-2019 06:00:00 7.3 C 7.58 g/m*3 7.3 C 0 km/h
938 06-10-2019 06:05:00 7.3 C 7.58 g/m*3 7.3 C 0 km/h
939 06-10-2019 06:10:00 7.3 C 7.58 g/m*3 7.3 C 0 km/h
940 06-10-2019 06:15:00 7.3 C 7.58 g/m*3 7.3 C 0 km/h
941 06-10-2019 06:20:00 7.3 C 7.58 g/m*3 7.3 C 0 km/h
942 06-10-2019 06:25:00 7.4 C 7.63 g/m*3 7.4 C 0 km/h
943 06-10-2019 06:30:00 7.4 C 7.63 g/m*3 7.4 C 0 km/h
944 06-10-2019 06:35:00 7.4 C 7.63 g/m*3 7.4 C 0 km/h
945 06-10-2019 06:40:00 7.4 C 7.63 g/m*3 7.4 C 0 km/h
946 06-10-2019 06:45:00 7.5 C 7.68 g/m*3 7.5 C 0 km/h
947 06-10-2019 06:50:00 7.5 C 7.68 g/m*3 7.5 C 0 km/h
948 06-10-2019 06:55:00 7.5 C 7.68 g/m*3 7.5 C 0 km/h
949 06-10-2019 07:00:00 7.6 C 7.73 g/m*3 7.6 C 0 km/h
950 06-10-2019 07:05:00 7.6 C 7.73 g/m*3 7.6 C 0 km/h
Sensor: Nr:Datum:Temp:Abs-Feuchte:Windchill:Wind:
Aussen-T/F 951 06-10-2019 07:10:00 7.6 C 7.73 g/m*3 7.6 C 0 km/h
952 06-10-2019 07:15:00 7.6 C 7.73 g/m*3 7.6 C 0 km/h
953 06-10-2019 07:20:00 7.7 C 7.78 g/m*3 7.7 C 0 km/h
954 06-10-2019 07:25:00 7.6 C 7.73 g/m*3 7.6 C 0 km/h
955 06-10-2019 07:30:00 7.7 C 7.78 g/m*3 7.7 C 0 km/h
956 06-10-2019 07:35:00 7.7 C 7.78 g/m*3 7.7 C 0 km/h
957 06-10-2019 07:40:00 7.7 C 7.78 g/m*3 7.7 C 0 km/h
958 06-10-2019 07:45:00 7.7 C 7.78 g/m*3 7.7 C 0 km/h
959 06-10-2019 07:50:00 7.7 C 7.78 g/m*3 7.7 C 0 km/h
960 06-10-2019 07:55:00 7.7 C 7.78 g/m*3 7.7 C 0 km/h
961 06-10-2019 08:00:00 7.7 C 7.78 g/m*3 7.7 C 0 km/h
962 06-10-2019 08:05:00 7.8 C 7.83 g/m*3 7.8 C 0 km/h
963 06-10-2019 08:10:00 7.8 C 7.83 g/m*3 7.8 C 0 km/h
964 06-10-2019 08:15:00 7.8 C 7.83 g/m*3 7.8 C 0 km/h
965 06-10-2019 08:20:00 7.8 C 7.83 g/m*3 7.8 C 0 km/h
966 06-10-2019 08:25:00 7.8 C 7.83 g/m*3 7.8 C 0 km/h
967 06-10-2019 08:30:00 7.8 C 7.83 g/m*3 7.8 C 0 km/h
968 06-10-2019 08:35:00 7.9 C 7.89 g/m*3 7.9 C 0 km/h
969 06-10-2019 08:40:00 7.9 C 7.89 g/m*3 7.9 C 0 km/h
970 06-10-2019 08:45:00 7.9 C 7.89 g/m*3 7.9 C 0 km/h
971 06-10-2019 08:50:00 7.9 C 7.89 g/m*3 7.9 C 0 km/h
972 06-10-2019 08:55:00 8 C 7.94 g/m*3 8 C 0 km/h
973 06-10-2019 09:00:00 8.1 C 7.99 g/m*3 8.1 C 0 km/h
974 06-10-2019 09:05:00 8.1 C 7.99 g/m*3 8.1 C 0 km/h
975 06-10-2019 09:10:00 8.1 C 7.99 g/m*3 8.1 C 0 km/h
Sensor: Nr:Datum:Temp:Abs-Feuchte:Windchill:Wind:
Aussen-T/F 976 06-10-2019 09:15:00 8.1 C 7.99 g/m*3 8.1 C 0 km/h
977 06-10-2019 09:20:00 8.2 C 8.04 g/m*3 8.2 C 0 km/h
978 06-10-2019 09:25:00 8.2 C 8.04 g/m*3 8.2 C 0 km/h
979 06-10-2019 09:30:00 8.3 C 8.09 g/m*3 8.3 C 0 km/h
980 06-10-2019 09:35:00 8.4 C 8.14 g/m*3 8.4 C 0 km/h
981 06-10-2019 09:40:00 8.4 C 8.14 g/m*3 8.4 C 0 km/h
982 06-10-2019 09:45:00 8.6 C 8.25 g/m*3 8.6 C 0 km/h
983 06-10-2019 09:50:00 8.6 C 8.25 g/m*3 8.6 C 0 km/h
984 06-10-2019 09:55:00 8.7 C 8.3 g/m*3 8.7 C 0 km/h
985 06-10-2019 10:00:00 8.7 C 8.3 g/m*3 8.7 C 0 km/h
986 06-10-2019 10:05:00 8.7 C 8.3 g/m*3 8.7 C 0 km/h
987 06-10-2019 10:10:00 8.7 C 8.3 g/m*3 8.7 C 0 km/h
988 06-10-2019 10:15:00 8.7 C 8.3 g/m*3 8.7 C 0 km/h
989 06-10-2019 10:20:00 8.7 C 8.3 g/m*3 8.7 C 0 km/h
990 06-10-2019 10:25:00 8.7 C 8.3 g/m*3 8.7 C 1.6 km/h
991 06-10-2019 10:30:00 8.6 C 8.16 g/m*3 8.6 C 3.2 km/h
992 06-10-2019 10:35:00 8.6 C 8.16 g/m*3 8.6 C 1.6 km/h
993 06-10-2019 10:40:00 8.6 C 8.16 g/m*3 8.6 C 0 km/h
994 06-10-2019 10:45:00 8.6 C 8.16 g/m*3 8.6 C 1.6 km/h
995 06-10-2019 10:50:00 8.5 C 8.11 g/m*3 8.5 C 1.6 km/h
996 06-10-2019 10:55:00 8.5 C 8.11 g/m*3 8.5 C 0 km/h
997 06-10-2019 11:00:00 8.5 C 8.11 g/m*3 8.5 C 4.8 km/h
998 06-10-2019 11:05:00 8.5 C 8.11 g/m*3 7.64 C 6.4 km/h
999 06-10-2019 11:10:00 8.5 C 8.2 g/m*3 8.5 C 3.2 km/h
1000 06-10-2019 11:15:00 8.6 C 8.25 g/m*3 8.6 C 4.8 km/h
Sensor: Nr:Datum:Temp:Abs-Feuchte:Windchill:Wind:
Aussen-T/F 1001 06-10-2019 11:20:00 8.5 C 8.2 g/m*3 8.5 C 4.8 km/h
1002 06-10-2019 11:25:00 8.5 C 8.2 g/m*3 8.5 C 4.8 km/h
1003 06-10-2019 11:30:00 8.5 C 8.2 g/m*3 8.5 C 0 km/h
1004 06-10-2019 11:35:00 8.6 C 8.25 g/m*3 7.75 C 6.4 km/h
1005 06-10-2019 11:40:00 8.6 C 8.25 g/m*3 8.6 C 0 km/h
1006 06-10-2019 11:45:00 8.6 C 8.25 g/m*3 8.6 C 3.2 km/h
1007 06-10-2019 11:50:00 8.6 C 8.25 g/m*3 8.6 C 1.6 km/h
1008 06-10-2019 11:55:00 8.7 C 8.3 g/m*3 8.7 C 3.2 km/h
1009 06-10-2019 12:00:00 8.7 C 8.3 g/m*3 8.7 C 1.6 km/h
1010 06-10-2019 12:05:00 8.7 C 8.3 g/m*3 8.7 C 0 km/h
1011 06-10-2019 12:10:00 8.8 C 8.36 g/m*3 8.8 C 0 km/h
1012 06-10-2019 12:15:00 8.8 C 8.36 g/m*3 8.8 C 1.6 km/h
1013 06-10-2019 12:20:00 8.8 C 8.36 g/m*3 8.8 C 0 km/h
1014 06-10-2019 12:25:00 8.8 C 8.36 g/m*3 8.8 C 0 km/h
1015 06-10-2019 12:30:00 8.8 C 8.36 g/m*3 8.8 C 0 km/h
1016 06-10-2019 12:35:00 8.8 C 8.36 g/m*3 8.8 C 0 km/h
1017 06-10-2019 12:40:00 8.8 C 8.36 g/m*3 8.8 C 0 km/h
1018 06-10-2019 12:45:00 8.8 C 8.36 g/m*3 8.8 C 0 km/h
1019 06-10-2019 12:50:00 8.8 C 8.36 g/m*3 8.8 C 0 km/h
1020 06-10-2019 12:55:00 8.8 C 8.36 g/m*3 8.8 C 0 km/h
1021 06-10-2019 13:00:00 8.9 C 8.41 g/m*3 8.9 C 0 km/h
1022 06-10-2019 13:05:00 9 C 8.46 g/m*3 9 C 0 km/h
1023 06-10-2019 13:10:00 9 C 8.46 g/m*3 9 C 0 km/h
1024 06-10-2019 13:15:00 9 C 8.46 g/m*3 9 C 0 km/h
1025 06-10-2019 13:20:00 9.1 C 8.52 g/m*3 9.1 C 0 km/h
Sensor: Nr:Datum:Temp:Abs-Feuchte:Windchill:Wind:
Aussen-T/F 1026 06-10-2019 13:25:00 9.1 C 8.52 g/m*3 9.1 C 0 km/h
1027 06-10-2019 13:30:00 9.1 C 8.52 g/m*3 9.1 C 4.8 km/h
1028 06-10-2019 13:35:00 9 C 8.46 g/m*3 9 C 0 km/h
1029 06-10-2019 13:40:00 9.1 C 8.52 g/m*3 9.1 C 0 km/h
1030 06-10-2019 13:45:00 9.1 C 8.52 g/m*3 9.1 C 1.6 km/h
1031 06-10-2019 13:50:00 9.2 C 8.57 g/m*3 9.2 C 1.6 km/h
1032 06-10-2019 13:55:00 9.2 C 8.57 g/m*3 9.2 C 0 km/h
1033 06-10-2019 14:00:00 9.2 C 8.57 g/m*3 9.2 C 1.6 km/h
1034 06-10-2019 14:05:00 9.2 C 8.57 g/m*3 9.2 C 1.6 km/h
1035 06-10-2019 14:10:00 9.2 C 8.57 g/m*3 9.2 C 0 km/h
1036 06-10-2019 14:15:00 9.2 C 8.57 g/m*3 9.2 C 1.6 km/h
1037 06-10-2019 14:20:00 9.2 C 8.57 g/m*3 9.2 C 3.2 km/h
1038 06-10-2019 14:25:00 9.2 C 8.57 g/m*3 9.2 C 3.2 km/h
1039 06-10-2019 14:30:00 9.2 C 8.57 g/m*3 9.2 C 0 km/h
1040 06-10-2019 14:35:00 9.3 C 8.63 g/m*3 9.3 C 1.6 km/h
1041 06-10-2019 14:40:00 9.3 C 8.63 g/m*3 9.3 C 0 km/h
1042 06-10-2019 14:45:00 9.3 C 8.63 g/m*3 9.3 C 0 km/h
1043 06-10-2019 14:50:00 9.3 C 8.63 g/m*3 9.3 C 0 km/h
1044 06-10-2019 14:55:00 9.4 C 8.68 g/m*3 9.4 C 0 km/h
1045 06-10-2019 15:00:00 9.3 C 8.63 g/m*3 9.3 C 4.8 km/h
1046 06-10-2019 15:05:00 9.3 C 8.63 g/m*3 9.3 C 0 km/h
1047 06-10-2019 15:10:00 9.3 C 8.63 g/m*3 9.3 C 0 km/h
1048 06-10-2019 15:15:00 9.4 C 8.68 g/m*3 9.4 C 0 km/h
1049 06-10-2019 15:20:00 9.4 C 8.68 g/m*3 9.4 C 0 km/h
1050 06-10-2019 15:25:00 9.4 C 8.68 g/m*3 9.4 C 0 km/h
Sensor: Nr:Datum:Temp:Abs-Feuchte:Windchill:Wind:
Aussen-T/F 1051 06-10-2019 15:30:00 9.5 C 8.74 g/m*3 9.5 C 1.6 km/h
1052 06-10-2019 15:35:00 9.5 C 8.74 g/m*3 9.5 C 0 km/h
1053 06-10-2019 15:40:00 9.6 C 8.79 g/m*3 9.6 C 0 km/h
1054 06-10-2019 15:45:00 9.6 C 8.79 g/m*3 9.6 C 0 km/h
1055 06-10-2019 15:50:00 9.6 C 8.79 g/m*3 9.6 C 0 km/h
1056 06-10-2019 15:55:00 9.6 C 8.79 g/m*3 9.6 C 0 km/h
1057 06-10-2019 16:00:00 9.6 C 8.79 g/m*3 9.6 C 0 km/h
1058 06-10-2019 16:05:00 9.6 C 8.79 g/m*3 9.6 C 0 km/h
1059 06-10-2019 16:10:00 9.6 C 8.79 g/m*3 9.6 C 0 km/h
1060 06-10-2019 16:15:00 9.7 C 8.85 g/m*3 9.7 C 0 km/h
1061 06-10-2019 16:20:00 9.7 C 8.85 g/m*3 9.7 C 4.8 km/h
1062 06-10-2019 16:25:00 9.6 C 8.79 g/m*3 9.6 C 4.8 km/h
1063 06-10-2019 16:30:00 9.6 C 8.79 g/m*3 9.6 C 3.2 km/h
1064 06-10-2019 16:35:00 9.6 C 8.79 g/m*3 9.6 C 3.2 km/h
1065 06-10-2019 16:40:00 9.6 C 8.79 g/m*3 9.6 C 1.6 km/h
1066 06-10-2019 16:45:00 9.6 C 8.79 g/m*3 9.6 C 3.2 km/h
1067 06-10-2019 16:50:00 9.6 C 8.79 g/m*3 9.6 C 0 km/h
1068 06-10-2019 16:55:00 9.6 C 8.79 g/m*3 9.6 C 1.6 km/h
1069 06-10-2019 17:00:00 9.6 C 8.79 g/m*3 9.6 C 0 km/h
1070 06-10-2019 17:05:00 9.5 C 8.74 g/m*3 9.5 C 0 km/h
1071 06-10-2019 17:10:00 9.5 C 8.74 g/m*3 9.5 C 0 km/h
1072 06-10-2019 17:15:00 9.6 C 8.79 g/m*3 9.6 C 0 km/h
1073 06-10-2019 17:20:00 9.6 C 8.79 g/m*3 9.6 C 0 km/h
1074 06-10-2019 17:25:00 9.5 C 8.74 g/m*3 9.5 C 0 km/h
1075 06-10-2019 17:30:00 9.5 C 8.74 g/m*3 9.5 C 1.6 km/h
Sensor: Nr:Datum:Temp:Abs-Feuchte:Windchill:Wind:
Aussen-T/F 1076 06-10-2019 17:35:00 9.5 C 8.74 g/m*3 9.5 C 3.2 km/h
1077 06-10-2019 17:40:00 9.5 C 8.74 g/m*3 9.5 C 1.6 km/h
1078 06-10-2019 17:45:00 9.5 C 8.74 g/m*3 9.5 C 0 km/h
1079 06-10-2019 17:50:00 9.5 C 8.74 g/m*3 9.5 C 0 km/h
1080 06-10-2019 17:55:00 9.4 C 8.68 g/m*3 9.4 C 0 km/h
1081 06-10-2019 18:00:00 9.4 C 8.68 g/m*3 9.4 C 3.2 km/h
1082 06-10-2019 18:05:00 9.4 C 8.68 g/m*3 9.4 C 1.6 km/h
1083 06-10-2019 18:10:00 9.4 C 8.68 g/m*3 9.4 C 0 km/h
1084 06-10-2019 18:15:00 9.4 C 8.68 g/m*3 9.4 C 0 km/h
1085 06-10-2019 18:20:00 9.4 C 8.68 g/m*3 9.4 C 1.6 km/h
1086 06-10-2019 18:25:00 9.3 C 8.63 g/m*3 9.3 C 3.2 km/h
1087 06-10-2019 18:30:00 9.3 C 8.63 g/m*3 9.3 C 1.6 km/h
1088 06-10-2019 18:35:00 9.3 C 8.63 g/m*3 9.3 C 3.2 km/h
1089 06-10-2019 18:40:00 9.3 C 8.63 g/m*3 8.16 C 8.1 km/h
1090 06-10-2019 18:45:00 9.3 C 8.63 g/m*3 8.16 C 8.1 km/h
1091 06-10-2019 18:50:00 9.2 C 8.57 g/m*3 8.05 C 8.1 km/h
1092 06-10-2019 18:55:00 9.2 C 8.57 g/m*3 9.2 C 0 km/h
1093 06-10-2019 19:00:00 9.2 C 8.57 g/m*3 9.2 C 3.2 km/h
1094 06-10-2019 19:05:00 9.2 C 8.57 g/m*3 8.45 C 6.4 km/h
1095 06-10-2019 19:10:00 9.2 C 8.57 g/m*3 8.45 C 6.4 km/h
1096 06-10-2019 19:15:00 9.2 C 8.57 g/m*3 8.05 C 8.1 km/h
1097 06-10-2019 19:20:00 9.2 C 8.57 g/m*3 9.2 C 4.8 km/h
1098 06-10-2019 19:25:00 9.2 C 8.57 g/m*3 9.2 C 3.2 km/h
1099 06-10-2019 19:30:00 9.1 C 8.52 g/m*3 9.1 C 4.8 km/h
1100 06-10-2019 19:35:00 9.1 C 8.52 g/m*3 9.1 C 4.8 km/h
Sensor: Nr:Datum:Temp:Abs-Feuchte:Windchill:Wind:
Aussen-T/F 1101 06-10-2019 19:40:00 9.1 C 8.52 g/m*3 9.1 C 1.6 km/h
1102 06-10-2019 19:45:00 9.1 C 8.61 g/m*3 9.1 C 0 km/h
1103 06-10-2019 19:50:00 9.1 C 8.61 g/m*3 9.1 C 0 km/h
1104 06-10-2019 19:55:00 9.1 C 8.61 g/m*3 9.1 C 0 km/h
1105 06-10-2019 20:00:00 9.1 C 8.61 g/m*3 9.1 C 1.6 km/h
1106 06-10-2019 20:05:00 9.1 C 8.61 g/m*3 9.1 C 1.6 km/h
1107 06-10-2019 20:10:00 9.1 C 8.61 g/m*3 9.1 C 0 km/h
1108 06-10-2019 20:15:00 9.1 C 8.61 g/m*3 9.1 C 0 km/h
1109 06-10-2019 20:20:00 9.1 C 8.61 g/m*3 9.1 C 0 km/h
1110 06-10-2019 20:25:00 9.1 C 8.61 g/m*3 9.1 C 0 km/h
1111 06-10-2019 20:30:00 9.1 C 8.61 g/m*3 9.1 C 0 km/h
1112 06-10-2019 20:35:00 9.1 C 8.61 g/m*3 9.1 C 0 km/h
1113 06-10-2019 20:40:00 9.1 C 8.61 g/m*3 9.1 C 0 km/h
1114 06-10-2019 20:45:00 9.1 C 8.61 g/m*3 9.1 C 1.6 km/h
1115 06-10-2019 20:50:00 9.1 C 8.61 g/m*3 9.1 C 0 km/h
1116 06-10-2019 20:55:00 9.1 C 8.61 g/m*3 9.1 C 0 km/h
1117 06-10-2019 21:00:00 9 C 8.55 g/m*3 9 C 1.6 km/h
1118 06-10-2019 21:05:00 9 C 8.55 g/m*3 9 C 0 km/h
1119 06-10-2019 21:10:00 9.1 C 8.61 g/m*3 9.1 C 0 km/h
1120 06-10-2019 21:15:00 9.1 C 8.61 g/m*3 9.1 C 0 km/h
1121 06-10-2019 21:20:00 9.1 C 8.61 g/m*3 9.1 C 0 km/h
1122 06-10-2019 21:25:00 9.1 C 8.61 g/m*3 9.1 C 0 km/h
1123 06-10-2019 21:30:00 9.1 C 8.61 g/m*3 9.1 C 0 km/h
1124 06-10-2019 21:35:00 9.1 C 8.61 g/m*3 9.1 C 3.2 km/h
1125 06-10-2019 21:40:00 9.1 C 8.61 g/m*3 9.1 C 4.8 km/h
Sensor: Nr:Datum:Temp:Abs-Feuchte:Windchill:Wind:
Aussen-T/F 1126 06-10-2019 21:45:00 9 C 8.55 g/m*3 9 C 1.6 km/h
1127 06-10-2019 21:50:00 8.9 C 8.5 g/m*3 8.9 C 0 km/h
1128 06-10-2019 21:55:00 8.9 C 8.5 g/m*3 7.37 C 9.7 km/h
1129 06-10-2019 22:00:00 8.9 C 8.5 g/m*3 6.85 C 12.9 km/h
1130 06-10-2019 22:05:00 8.9 C 8.5 g/m*3 8.9 C 1.6 km/h
1131 06-10-2019 22:10:00 8.8 C 8.44 g/m*3 8.8 C 3.2 km/h
1132 06-10-2019 22:15:00 8.8 C 8.44 g/m*3 8.8 C 1.6 km/h
1133 06-10-2019 22:20:00 8.8 C 8.44 g/m*3 8.8 C 3.2 km/h
1134 06-10-2019 22:25:00 8.8 C 8.44 g/m*3 8.8 C 0 km/h
1135 06-10-2019 22:30:00 8.8 C 8.44 g/m*3 8.8 C 0 km/h
1136 06-10-2019 22:35:00 8.8 C 8.44 g/m*3 8.8 C 0 km/h
1137 06-10-2019 22:40:00 8.8 C 8.44 g/m*3 8.8 C 0 km/h
1138 06-10-2019 22:45:00 8.8 C 8.44 g/m*3 8.8 C 0 km/h
1139 06-10-2019 22:50:00 8.8 C 8.44 g/m*3 8.8 C 0 km/h
1140 06-10-2019 22:55:00 8.8 C 8.44 g/m*3 8.8 C 0 km/h
1141 06-10-2019 23:00:00 8.8 C 8.44 g/m*3 8.8 C 0 km/h
1142 06-10-2019 23:05:00 8.8 C 8.44 g/m*3 8.8 C 0 km/h
1143 06-10-2019 23:10:00 8.8 C 8.44 g/m*3 8.8 C 0 km/h
1144 06-10-2019 23:15:00 8.8 C 8.44 g/m*3 8.8 C 0 km/h
1145 06-10-2019 23:20:00 8.8 C 8.44 g/m*3 8.8 C 0 km/h
1146 06-10-2019 23:25:00 8.8 C 8.44 g/m*3 8.8 C 0 km/h
1147 06-10-2019 23:30:00 8.8 C 8.44 g/m*3 8.8 C 0 km/h
1148 06-10-2019 23:35:00 8.8 C 8.44 g/m*3 8.8 C 0 km/h
1149 06-10-2019 23:40:00 8.9 C 8.5 g/m*3 8.9 C 0 km/h
1150 06-10-2019 23:45:00 8.9 C 8.5 g/m*3 8.9 C 0 km/h
Sensor: Nr:Datum:Temp:Abs-Feuchte:Windchill:Wind:
Aussen-T/F 1151 06-10-2019 23:50:00 8.9 C 8.5 g/m*3 8.9 C 0 km/h
1152 06-10-2019 23:55:00 8.9 C 8.5 g/m*3 8.9 C 0 km/h
1153 07-10-2019 00:00:00 8.9 C 8.5 g/m*3 8.9 C 0 km/h
1154 07-10-2019 00:05:00 8.9 C 8.5 g/m*3 8.9 C 0 km/h
1155 07-10-2019 00:10:00 8.9 C 8.5 g/m*3 8.9 C 0 km/h
1156 07-10-2019 00:15:00 8.9 C 8.5 g/m*3 8.9 C 0 km/h
1157 07-10-2019 00:20:00 8.9 C 8.5 g/m*3 8.9 C 0 km/h
1158 07-10-2019 00:25:00 8.9 C 8.5 g/m*3 8.9 C 0 km/h
1159 07-10-2019 00:30:00 8.9 C 8.5 g/m*3 8.9 C 0 km/h
1160 07-10-2019 00:35:00 8.9 C 8.5 g/m*3 8.9 C 0 km/h
1161 07-10-2019 00:40:00 8.9 C 8.5 g/m*3 8.9 C 0 km/h
1162 07-10-2019 00:45:00 8.9 C 8.5 g/m*3 8.9 C 0 km/h
1163 07-10-2019 00:50:00 8.9 C 8.5 g/m*3 8.9 C 1.6 km/h
1164 07-10-2019 00:55:00 8.9 C 8.5 g/m*3 8.9 C 1.6 km/h
1165 07-10-2019 01:00:00 8.9 C 8.5 g/m*3 8.9 C 3.2 km/h
1166 07-10-2019 01:05:00 8.8 C 8.44 g/m*3 8.8 C 0 km/h
1167 07-10-2019 01:10:00 8.8 C 8.44 g/m*3 8.8 C 0 km/h
1168 07-10-2019 01:15:00 8.7 C 8.39 g/m*3 8.7 C 4.8 km/h
1169 07-10-2019 01:20:00 8.7 C 8.39 g/m*3 8.7 C 3.2 km/h
1170 07-10-2019 01:25:00 8.7 C 8.39 g/m*3 7.13 C 9.7 km/h
1171 07-10-2019 01:30:00 8.7 C 8.39 g/m*3 7.46 C 8.1 km/h
1172 07-10-2019 01:35:00 8.6 C 8.34 g/m*3 8.6 C 4.8 km/h
1173 07-10-2019 01:40:00 8.7 C 8.39 g/m*3 8.7 C 0 km/h
1174 07-10-2019 01:45:00 8.7 C 8.39 g/m*3 8.7 C 1.6 km/h
1175 07-10-2019 01:50:00 8.7 C 8.39 g/m*3 8.7 C 0 km/h
Sensor: Nr:Datum:Temp:Abs-Feuchte:Windchill:Wind:
Aussen-T/F 1176 07-10-2019 01:55:00 8.7 C 8.39 g/m*3 8.7 C 0 km/h
1177 07-10-2019 02:00:00 8.7 C 8.39 g/m*3 8.7 C 0 km/h
1178 07-10-2019 02:05:00 8.7 C 8.39 g/m*3 8.7 C 0 km/h
1179 07-10-2019 02:10:00 8.7 C 8.39 g/m*3 8.7 C 0 km/h
1180 07-10-2019 02:15:00 8.7 C 8.39 g/m*3 8.7 C 0 km/h
1181 07-10-2019 02:20:00 8.7 C 8.39 g/m*3 8.7 C 0 km/h
1182 07-10-2019 02:25:00 8.7 C 8.39 g/m*3 8.7 C 0 km/h
1183 07-10-2019 02:30:00 8.7 C 8.39 g/m*3 8.7 C 0 km/h
1184 07-10-2019 02:35:00 8.7 C 8.39 g/m*3 8.7 C 0 km/h
1185 07-10-2019 02:40:00 8.7 C 8.39 g/m*3 8.7 C 0 km/h
1186 07-10-2019 02:45:00 8.7 C 8.39 g/m*3 8.7 C 0 km/h
1187 07-10-2019 02:50:00 8.7 C 8.39 g/m*3 8.7 C 0 km/h
1188 07-10-2019 02:55:00 8.6 C 8.34 g/m*3 8.6 C 1.6 km/h
1189 07-10-2019 03:00:00 8.6 C 8.34 g/m*3 7.75 C 6.4 km/h
1190 07-10-2019 03:05:00 8.6 C 8.34 g/m*3 8.6 C 0 km/h
1191 07-10-2019 03:10:00 8.6 C 8.34 g/m*3 7.75 C 6.4 km/h
1192 07-10-2019 03:15:00 8.6 C 8.34 g/m*3 8.6 C 1.6 km/h
1193 07-10-2019 03:20:00 8.6 C 8.34 g/m*3 8.6 C 0 km/h
1194 07-10-2019 03:25:00 8.6 C 8.34 g/m*3 8.6 C 0 km/h
1195 07-10-2019 03:30:00 8.6 C 8.34 g/m*3 8.6 C 0 km/h
1196 07-10-2019 03:35:00 8.6 C 8.34 g/m*3 8.6 C 0 km/h
1197 07-10-2019 03:40:00 8.6 C 8.34 g/m*3 8.6 C 0 km/h
1198 07-10-2019 03:45:00 8.6 C 8.34 g/m*3 8.6 C 1.6 km/h
1199 07-10-2019 03:50:00 8.6 C 8.34 g/m*3 8.6 C 0 km/h
1200 07-10-2019 03:55:00 8.7 C 8.39 g/m*3 8.7 C 0 km/h
Sensor: Nr:Datum:Temp:Abs-Feuchte:Windchill:Wind:
Aussen-T/F 1201 07-10-2019 04:00:00 8.7 C 8.39 g/m*3 8.7 C 0 km/h
1202 07-10-2019 04:05:00 8.7 C 8.39 g/m*3 8.7 C 0 km/h
1203 07-10-2019 04:10:00 8.7 C 8.39 g/m*3 8.7 C 0 km/h
1204 07-10-2019 04:15:00 8.7 C 8.39 g/m*3 8.7 C 0 km/h
1205 07-10-2019 04:20:00 8.7 C 8.39 g/m*3 8.7 C 0 km/h
1206 07-10-2019 04:25:00 8.7 C 8.39 g/m*3 8.7 C 0 km/h
1207 07-10-2019 04:30:00 8.7 C 8.39 g/m*3 8.7 C 0 km/h
1208 07-10-2019 04:35:00 8.7 C 8.39 g/m*3 8.7 C 0 km/h
1209 07-10-2019 04:40:00 8.7 C 8.39 g/m*3 8.7 C 0 km/h
1210 07-10-2019 04:45:00 8.7 C 8.39 g/m*3 8.7 C 0 km/h
1211 07-10-2019 04:50:00 8.7 C 8.39 g/m*3 8.7 C 0 km/h
1212 07-10-2019 04:55:00 8.7 C 8.39 g/m*3 8.7 C 0 km/h
1213 07-10-2019 05:00:00 8.7 C 8.39 g/m*3 8.7 C 0 km/h
1214 07-10-2019 05:05:00 8.7 C 8.39 g/m*3 8.7 C 0 km/h
1215 07-10-2019 05:10:00 8.7 C 8.39 g/m*3 8.7 C 0 km/h
1216 07-10-2019 05:15:00 8.7 C 8.39 g/m*3 8.7 C 1.6 km/h
1217 07-10-2019 05:20:00 8.7 C 8.39 g/m*3 8.7 C 4.8 km/h
1218 07-10-2019 05:25:00 8.6 C 8.34 g/m*3 8.6 C 4.8 km/h
1219 07-10-2019 05:30:00 8.6 C 8.34 g/m*3 8.6 C 1.6 km/h
1220 07-10-2019 05:35:00 8.6 C 8.34 g/m*3 8.6 C 1.6 km/h
1221 07-10-2019 05:40:00 8.6 C 8.34 g/m*3 8.6 C 1.6 km/h
1222 07-10-2019 05:45:00 8.6 C 8.34 g/m*3 8.6 C 3.2 km/h
1223 07-10-2019 05:50:00 8.6 C 8.34 g/m*3 8.6 C 3.2 km/h
1224 07-10-2019 05:55:00 8.6 C 8.34 g/m*3 8.6 C 0 km/h
1225 07-10-2019 06:00:00 8.6 C 8.34 g/m*3 8.6 C 1.6 km/h
Sensor: Nr:Datum:Temp:Abs-Feuchte:Windchill:Wind:
Aussen-T/F 1226 07-10-2019 06:05:00 8.6 C 8.34 g/m*3 8.6 C 0 km/h
1227 07-10-2019 06:10:00 8.6 C 8.34 g/m*3 8.6 C 0 km/h
1228 07-10-2019 06:15:00 8.6 C 8.34 g/m*3 8.6 C 0 km/h
1229 07-10-2019 06:20:00 8.6 C 8.34 g/m*3 8.6 C 0 km/h
1230 07-10-2019 06:25:00 8.6 C 8.34 g/m*3 8.6 C 0 km/h
1231 07-10-2019 06:30:00 8.6 C 8.34 g/m*3 8.6 C 0 km/h
1232 07-10-2019 06:35:00 8.6 C 8.34 g/m*3 8.6 C 0 km/h
1233 07-10-2019 06:40:00 8.6 C 8.34 g/m*3 8.6 C 0 km/h
1234 07-10-2019 06:45:00 8.6 C 8.34 g/m*3 8.6 C 0 km/h
1235 07-10-2019 06:50:00 8.6 C 8.34 g/m*3 8.6 C 0 km/h
1236 07-10-2019 06:55:00 8.6 C 8.34 g/m*3 8.6 C 0 km/h
1237 07-10-2019 07:00:00 8.6 C 8.34 g/m*3 8.6 C 0 km/h
1238 07-10-2019 07:05:00 8.6 C 8.34 g/m*3 8.6 C 0 km/h
1239 07-10-2019 07:10:00 8.6 C 8.34 g/m*3 8.6 C 0 km/h
1240 07-10-2019 07:15:00 8.6 C 8.34 g/m*3 8.6 C 0 km/h
1241 07-10-2019 07:20:00 8.6 C 8.34 g/m*3 8.6 C 0 km/h
1242 07-10-2019 07:25:00 8.6 C 8.34 g/m*3 8.6 C 0 km/h
1243 07-10-2019 07:30:00 8.6 C 8.34 g/m*3 8.6 C 0 km/h
1244 07-10-2019 07:35:00 8.6 C 8.34 g/m*3 8.6 C 0 km/h
1245 07-10-2019 07:40:00 8.6 C 8.34 g/m*3 8.6 C 0 km/h
1246 07-10-2019 07:45:00 8.6 C 8.34 g/m*3 8.6 C 0 km/h
1247 07-10-2019 07:50:00 8.6 C 8.34 g/m*3 8.6 C 0 km/h
1248 07-10-2019 07:55:00 8.6 C 8.34 g/m*3 8.6 C 0 km/h
1249 07-10-2019 08:00:00 8.6 C 8.34 g/m*3 8.6 C 0 km/h
1250 07-10-2019 08:05:00 8.6 C 8.34 g/m*3 8.6 C 0 km/h
Sensor: Nr:Datum:Temp:Abs-Feuchte:Windchill:Wind:
Aussen-T/F 1251 07-10-2019 08:10:00 8.6 C 8.34 g/m*3 8.6 C 0 km/h
1252 07-10-2019 08:15:00 8.6 C 8.34 g/m*3 8.6 C 0 km/h
1253 07-10-2019 08:20:00 8.6 C 8.34 g/m*3 8.6 C 0 km/h
1254 07-10-2019 08:25:00 8.7 C 8.39 g/m*3 8.7 C 0 km/h
1255 07-10-2019 08:30:00 8.7 C 8.39 g/m*3 8.7 C 0 km/h
1256 07-10-2019 08:35:00 8.7 C 8.39 g/m*3 8.7 C 0 km/h
1257 07-10-2019 08:40:00 8.7 C 8.39 g/m*3 8.7 C 0 km/h
1258 07-10-2019 08:45:00 8.7 C 8.39 g/m*3 8.7 C 0 km/h
1259 07-10-2019 08:50:00 8.7 C 8.39 g/m*3 8.7 C 0 km/h
1260 07-10-2019 08:55:00 8.8 C 8.44 g/m*3 8.8 C 0 km/h
1261 07-10-2019 09:00:00 8.8 C 8.44 g/m*3 8.8 C 0 km/h
1262 07-10-2019 09:05:00 8.8 C 8.44 g/m*3 8.8 C 0 km/h
1263 07-10-2019 09:10:00 8.8 C 8.44 g/m*3 8.8 C 0 km/h
1264 07-10-2019 09:15:00 8.8 C 8.44 g/m*3 8.8 C 0 km/h
1265 07-10-2019 09:20:00 8.8 C 8.44 g/m*3 8.8 C 1.6 km/h
1266 07-10-2019 09:25:00 8.8 C 8.44 g/m*3 8.8 C 0 km/h
1267 07-10-2019 09:30:00 8.8 C 8.44 g/m*3 8.8 C 0 km/h
1268 07-10-2019 09:35:00 8.8 C 8.44 g/m*3 8.8 C 0 km/h
1269 07-10-2019 09:40:00 8.9 C 8.5 g/m*3 8.9 C 0 km/h
1270 07-10-2019 09:45:00 8.9 C 8.5 g/m*3 8.9 C 0 km/h
1271 07-10-2019 09:50:00 8.9 C 8.5 g/m*3 8.9 C 0 km/h
1272 07-10-2019 09:55:00 8.9 C 8.5 g/m*3 8.9 C 1.6 km/h
1273 07-10-2019 10:00:00 8.9 C 8.5 g/m*3 8.9 C 0 km/h
1274 07-10-2019 10:05:00 8.9 C 8.5 g/m*3 8.9 C 0 km/h
1275 07-10-2019 10:10:00 9 C 8.55 g/m*3 9 C 0 km/h
Sensor: Nr:Datum:Temp:Abs-Feuchte:Windchill:Wind:
Aussen-T/F 1276 07-10-2019 10:15:00 9.1 C 8.61 g/m*3 9.1 C 0 km/h
1277 07-10-2019 10:20:00 9.1 C 8.61 g/m*3 9.1 C 0 km/h
1278 07-10-2019 10:25:00 9.1 C 8.61 g/m*3 9.1 C 0 km/h
1279 07-10-2019 10:30:00 9.1 C 8.61 g/m*3 9.1 C 1.6 km/h
1280 07-10-2019 10:35:00 9.1 C 8.61 g/m*3 9.1 C 1.6 km/h
1281 07-10-2019 10:40:00 9.1 C 8.61 g/m*3 9.1 C 3.2 km/h
1282 07-10-2019 10:45:00 9.2 C 8.66 g/m*3 9.2 C 0 km/h
1283 07-10-2019 10:50:00 9.2 C 8.66 g/m*3 9.2 C 3.2 km/h
1284 07-10-2019 10:55:00 9.2 C 8.66 g/m*3 9.2 C 3.2 km/h
1285 07-10-2019 11:00:00 9.3 C 8.72 g/m*3 9.3 C 1.6 km/h
1286 07-10-2019 11:05:00 9.3 C 8.72 g/m*3 9.3 C 1.6 km/h
1287 07-10-2019 11:10:00 9.3 C 8.72 g/m*3 9.3 C 3.2 km/h
1288 07-10-2019 11:15:00 9.4 C 8.77 g/m*3 9.4 C 3.2 km/h
1289 07-10-2019 11:20:00 9.6 C 8.89 g/m*3 9.6 C 0 km/h
1290 07-10-2019 11:25:00 9.6 C 8.89 g/m*3 9.6 C 0 km/h
1291 07-10-2019 11:30:00 9.7 C 8.94 g/m*3 9.7 C 1.6 km/h
1292 07-10-2019 11:35:00 9.7 C 8.94 g/m*3 9.7 C 4.8 km/h
1293 07-10-2019 11:40:00 9.9 C 8.96 g/m*3 9.9 C 4.8 km/h
1294 07-10-2019 11:45:00 10 C 9.11 g/m*3 10 C 3.2 km/h
1295 07-10-2019 11:50:00 10 C 9.02 g/m*3 9.37 C 6.4 km/h
1296 07-10-2019 11:55:00 10 C 8.93 g/m*3 8.68 C 9.7 km/h
1297 07-10-2019 12:00:00 10.1 C 8.98 g/m*3 10.1 C 3.2 km/h
1298 07-10-2019 12:05:00 10.2 C 9.04 g/m*3 10.2 C 3.2 km/h
1299 07-10-2019 12:10:00 10.2 C 8.95 g/m*3 10.2 C 1.6 km/h
1300 07-10-2019 12:15:00 10.3 C 9 g/m*3 9.72 C 6.4 km/h
Sensor: Nr:Datum:Temp:Abs-Feuchte:Windchill:Wind:
Aussen-T/F 1301 07-10-2019 12:20:00 10.4 C 9.06 g/m*3 10.4 C 1.6 km/h
1302 07-10-2019 12:25:00 10.6 C 9.17 g/m*3 10.6 C 3.2 km/h
1303 07-10-2019 12:30:00 10.7 C 9.13 g/m*3 10.7 C 1.6 km/h
1304 07-10-2019 12:35:00 10.7 C 9.13 g/m*3 10.7 C 3.2 km/h
1305 07-10-2019 12:40:00 10.7 C 9.04 g/m*3 10.7 C 0 km/h
1306 07-10-2019 12:45:00 10.7 C 9.04 g/m*3 10.7 C 1.6 km/h
1307 07-10-2019 12:50:00 10.8 C 9.09 g/m*3 10.8 C 1.6 km/h
1308 07-10-2019 12:55:00 10.8 C 8.99 g/m*3 10.8 C 1.6 km/h
1309 07-10-2019 13:00:00 10.8 C 8.99 g/m*3 9.93 C 8.1 km/h
1310 07-10-2019 13:05:00 10.8 C 8.99 g/m*3 10.8 C 1.6 km/h
1311 07-10-2019 13:10:00 10.8 C 8.99 g/m*3 10.8 C 4.8 km/h
1312 07-10-2019 13:15:00 10.7 C 8.84 g/m*3 10.7 C 3.2 km/h
1313 07-10-2019 13:20:00 10.7 C 8.94 g/m*3 10.7 C 1.6 km/h
1314 07-10-2019 13:25:00 10.8 C 8.99 g/m*3 10.8 C 1.6 km/h
1315 07-10-2019 13:30:00 10.8 C 8.99 g/m*3 10.8 C 0 km/h
1316 07-10-2019 13:35:00 10.8 C 8.99 g/m*3 10.8 C 1.6 km/h
1317 07-10-2019 13:40:00 10.9 C 9.15 g/m*3 10.9 C 1.6 km/h
1318 07-10-2019 13:45:00 10.9 C 9.05 g/m*3 10.9 C 1.6 km/h
1319 07-10-2019 13:50:00 11 C 9.11 g/m*3 11 C 1.6 km/h
1320 07-10-2019 13:55:00 11.1 C 8.96 g/m*3 11.1 C 4.8 km/h
1321 07-10-2019 14:00:00 11.2 C 9.02 g/m*3 11.2 C 4.8 km/h
1322 07-10-2019 14:05:00 11.2 C 9.02 g/m*3 11.2 C 11.3 km/h
1323 07-10-2019 14:10:00 11.2 C 9.02 g/m*3 11.2 C 6.4 km/h
1324 07-10-2019 14:15:00 11.3 C 9.08 g/m*3 11.3 C 4.8 km/h
1325 07-10-2019 14:20:00 11.4 C 9.14 g/m*3 11.4 C 4.8 km/h
Sensor: Nr:Datum:Temp:Abs-Feuchte:Windchill:Wind:
Aussen-T/F 1326 07-10-2019 14:25:00 11.4 C 9.03 g/m*3 11.4 C 4.8 km/h
1327 07-10-2019 14:30:00 11.5 C 9.09 g/m*3 11.5 C 9.7 km/h
1328 07-10-2019 14:35:00 11.6 C 9.15 g/m*3 11.6 C 6.4 km/h
1329 07-10-2019 14:40:00 11.6 C 9.15 g/m*3 11.6 C 8.1 km/h
1330 07-10-2019 14:45:00 11.7 C 9.2 g/m*3 11.7 C 4.8 km/h
1331 07-10-2019 14:50:00 11.7 C 9.1 g/m*3 11.7 C 1.6 km/h
1332 07-10-2019 14:55:00 11.8 C 9.16 g/m*3 11.8 C 3.2 km/h
1333 07-10-2019 15:00:00 11.9 C 9.32 g/m*3 11.9 C 1.6 km/h
1334 07-10-2019 15:05:00 12.1 C 9.33 g/m*3 12.1 C 1.6 km/h
1335 07-10-2019 15:10:00 12.1 C 9.22 g/m*3 12.1 C 1.6 km/h
1336 07-10-2019 15:15:00 12.2 C 9.39 g/m*3 12.2 C 4.8 km/h
1337 07-10-2019 15:20:00 12.3 C 9.56 g/m*3 12.3 C 3.2 km/h
1338 07-10-2019 15:25:00 12.3 C 9.45 g/m*3 12.3 C 1.6 km/h
1339 07-10-2019 15:30:00 12.3 C 9.45 g/m*3 12.3 C 4.8 km/h
1340 07-10-2019 15:35:00 12.3 C 9.34 g/m*3 12.3 C 1.6 km/h
1341 07-10-2019 15:40:00 12.3 C 9.45 g/m*3 12.3 C 1.6 km/h
1342 07-10-2019 15:45:00 12.3 C 9.56 g/m*3 12.3 C 0 km/h
1343 07-10-2019 15:50:00 12.3 C 9.56 g/m*3 12.3 C 0 km/h
1344 07-10-2019 15:55:00 12.3 C 9.56 g/m*3 12.3 C 0 km/h
1345 07-10-2019 16:00:00 12.3 C 9.56 g/m*3 12.3 C 0 km/h
1346 07-10-2019 16:05:00 12.2 C 9.5 g/m*3 12.2 C 0 km/h
1347 07-10-2019 16:10:00 12.2 C 9.39 g/m*3 12.2 C 0 km/h
1348 07-10-2019 16:15:00 12.2 C 9.5 g/m*3 12.2 C 0 km/h
1349 07-10-2019 16:20:00 12.2 C 9.5 g/m*3 12.2 C 3.2 km/h
1350 07-10-2019 16:25:00 12.2 C 9.39 g/m*3 12.2 C 3.2 km/h
Sensor: Nr:Datum:Temp:Abs-Feuchte:Windchill:Wind:
Aussen-T/F 1351 07-10-2019 16:30:00 12.3 C 9.56 g/m*3 12.3 C 0 km/h
1352 07-10-2019 16:35:00 12.3 C 9.56 g/m*3 12.3 C 1.6 km/h
1353 07-10-2019 16:40:00 12.4 C 9.62 g/m*3 12.4 C 3.2 km/h
1354 07-10-2019 16:45:00 12.4 C 9.62 g/m*3 12.4 C 0 km/h
1355 07-10-2019 16:50:00 12.4 C 9.62 g/m*3 12.4 C 3.2 km/h
1356 07-10-2019 16:55:00 12.4 C 9.62 g/m*3 12.4 C 1.6 km/h
1357 07-10-2019 17:00:00 12.4 C 9.62 g/m*3 12.4 C 6.4 km/h
1358 07-10-2019 17:05:00 12.4 C 9.62 g/m*3 12.4 C 1.6 km/h
1359 07-10-2019 17:10:00 12.4 C 9.62 g/m*3 12.4 C 0 km/h
1360 07-10-2019 17:15:00 12.4 C 9.62 g/m*3 12.4 C 1.6 km/h
1361 07-10-2019 17:20:00 12.4 C 9.62 g/m*3 12.4 C 3.2 km/h
1362 07-10-2019 17:25:00 12.3 C 9.56 g/m*3 12.3 C 1.6 km/h
1363 07-10-2019 17:30:00 12.3 C 9.56 g/m*3 12.3 C 1.6 km/h
1364 07-10-2019 17:35:00 12.3 C 9.56 g/m*3 12.3 C 0 km/h
1365 07-10-2019 17:40:00 12.3 C 9.56 g/m*3 12.3 C 4.8 km/h
1366 07-10-2019 17:45:00 12.2 C 9.5 g/m*3 12.2 C 3.2 km/h
1367 07-10-2019 17:50:00 12.1 C 9.44 g/m*3 12.1 C 3.2 km/h
1368 07-10-2019 17:55:00 12.1 C 9.54 g/m*3 12.1 C 1.6 km/h
1369 07-10-2019 18:00:00 12.1 C 9.54 g/m*3 12.1 C 1.6 km/h
1370 07-10-2019 18:05:00 12 C 9.48 g/m*3 12 C 0 km/h
1371 07-10-2019 18:10:00 11.9 C 9.43 g/m*3 11.9 C 4.8 km/h
1372 07-10-2019 18:15:00 11.9 C 9.53 g/m*3 11.9 C 0 km/h
1373 07-10-2019 18:20:00 11.9 C 9.53 g/m*3 11.9 C 0 km/h
1374 07-10-2019 18:25:00 11.9 C 9.64 g/m*3 11.9 C 0 km/h
1375 07-10-2019 18:30:00 11.9 C 9.64 g/m*3 11.9 C 0 km/h
Sensor: Nr:Datum:Temp:Abs-Feuchte:Windchill:Wind:
Aussen-T/F 1376 07-10-2019 18:35:00 11.9 C 9.64 g/m*3 11.9 C 0 km/h
1377 07-10-2019 18:40:00 11.8 C 9.58 g/m*3 11.8 C 0 km/h
1378 07-10-2019 18:45:00 11.8 C 9.58 g/m*3 11.8 C 0 km/h
1379 07-10-2019 18:50:00 11.7 C 9.62 g/m*3 11.7 C 0 km/h
1380 07-10-2019 18:55:00 11.6 C 9.56 g/m*3 11.6 C 0 km/h
1381 07-10-2019 19:00:00 11.6 C 9.56 g/m*3 11.6 C 0 km/h
1382 07-10-2019 19:05:00 11.5 C 9.5 g/m*3 11.5 C 0 km/h
1383 07-10-2019 19:10:00 11.4 C 9.44 g/m*3 11.4 C 0 km/h
1384 07-10-2019 19:15:00 11.3 C 9.49 g/m*3 11.3 C 0 km/h
1385 07-10-2019 19:20:00 11.3 C 9.49 g/m*3 11.3 C 0 km/h
1386 07-10-2019 19:25:00 11.2 C 9.43 g/m*3 11.2 C 0 km/h
1387 07-10-2019 19:30:00 11.1 C 9.37 g/m*3 11.1 C 0 km/h
1388 07-10-2019 19:35:00 11 C 9.31 g/m*3 11 C 0 km/h
1389 07-10-2019 19:40:00 10.8 C 9.19 g/m*3 10.8 C 0 km/h
1390 07-10-2019 19:45:00 10.7 C 9.13 g/m*3 10.7 C 0 km/h
1391 07-10-2019 19:50:00 10.6 C 9.08 g/m*3 10.6 C 0 km/h
1392 07-10-2019 19:55:00 10.6 C 9.17 g/m*3 10.6 C 0 km/h
1393 07-10-2019 20:00:00 10.6 C 9.17 g/m*3 10.6 C 0 km/h
1394 07-10-2019 20:05:00 10.6 C 9.17 g/m*3 10.6 C 0 km/h
1395 07-10-2019 20:10:00 10.7 C 9.23 g/m*3 10.7 C 0 km/h
1396 07-10-2019 20:15:00 10.7 C 9.33 g/m*3 10.7 C 0 km/h
1397 07-10-2019 20:20:00 10.7 C 9.33 g/m*3 10.7 C 0 km/h
1398 07-10-2019 20:25:00 10.7 C 9.33 g/m*3 10.7 C 0 km/h
1399 07-10-2019 20:30:00 10.7 C 9.33 g/m*3 10.7 C 0 km/h
1400 07-10-2019 20:35:00 10.8 C 9.39 g/m*3 10.8 C 0 km/h
Sensor: Nr:Datum:Temp:Abs-Feuchte:Windchill:Wind:
Aussen-T/F 1401 07-10-2019 20:40:00 10.8 C 9.39 g/m*3 10.8 C 0 km/h
1402 07-10-2019 20:45:00 10.8 C 9.39 g/m*3 10.8 C 0 km/h
1403 07-10-2019 20:50:00 10.8 C 9.39 g/m*3 10.8 C 0 km/h
1404 07-10-2019 20:55:00 10.8 C 9.39 g/m*3 10.8 C 0 km/h
1405 07-10-2019 21:00:00 10.9 C 9.45 g/m*3 10.9 C 0 km/h
1406 07-10-2019 21:05:00 10.9 C 9.45 g/m*3 10.9 C 0 km/h
1407 07-10-2019 21:10:00 10.9 C 9.55 g/m*3 10.9 C 0 km/h
1408 07-10-2019 21:15:00 10.9 C 9.55 g/m*3 10.9 C 0 km/h
1409 07-10-2019 21:20:00 10.9 C 9.55 g/m*3 10.9 C 0 km/h
1410 07-10-2019 21:25:00 10.9 C 9.55 g/m*3 10.9 C 0 km/h
1411 07-10-2019 21:30:00 10.9 C 9.55 g/m*3 10.9 C 0 km/h
1412 07-10-2019 21:35:00 11 C 9.61 g/m*3 11 C 0 km/h
1413 07-10-2019 21:40:00 11.1 C 9.67 g/m*3 11.1 C 0 km/h
1414 07-10-2019 21:45:00 11.1 C 9.67 g/m*3 11.1 C 0 km/h
1415 07-10-2019 21:50:00 11.1 C 9.67 g/m*3 11.1 C 0 km/h
1416 07-10-2019 21:55:00 11.1 C 9.67 g/m*3 11.1 C 0 km/h
1417 07-10-2019 22:00:00 11.1 C 9.67 g/m*3 11.1 C 0 km/h
1418 07-10-2019 22:05:00 11.1 C 9.67 g/m*3 11.1 C 1.6 km/h
1419 07-10-2019 22:10:00 11.2 C 9.73 g/m*3 11.2 C 1.6 km/h
1420 07-10-2019 22:15:00 11.2 C 9.73 g/m*3 11.2 C 0 km/h
1421 07-10-2019 22:20:00 11.2 C 9.73 g/m*3 11.2 C 0 km/h
1422 07-10-2019 22:25:00 11.1 C 9.67 g/m*3 11.1 C 0 km/h
1423 07-10-2019 22:30:00 11.1 C 9.67 g/m*3 11.1 C 0 km/h
1424 07-10-2019 22:35:00 11.1 C 9.67 g/m*3 11.1 C 0 km/h
1425 07-10-2019 22:40:00 11.1 C 9.67 g/m*3 11.1 C 0 km/h
Sensor: Nr:Datum:Temp:Abs-Feuchte:Windchill:Wind:
Aussen-T/F 1426 07-10-2019 22:45:00 11 C 9.61 g/m*3 11 C 0 km/h
1427 07-10-2019 22:50:00 11 C 9.61 g/m*3 11 C 0 km/h
1428 07-10-2019 22:55:00 11 C 9.61 g/m*3 11 C 0 km/h
1429 07-10-2019 23:00:00 11.1 C 9.67 g/m*3 11.1 C 0 km/h
1430 07-10-2019 23:05:00 11.1 C 9.67 g/m*3 11.1 C 0 km/h
1431 07-10-2019 23:10:00 11.1 C 9.67 g/m*3 11.1 C 0 km/h
1432 07-10-2019 23:15:00 11.1 C 9.67 g/m*3 11.1 C 0 km/h
1433 07-10-2019 23:20:00 11.1 C 9.67 g/m*3 11.1 C 0 km/h
1434 07-10-2019 23:25:00 11.1 C 9.67 g/m*3 11.1 C 1.6 km/h
1435 07-10-2019 23:30:00 11.1 C 9.67 g/m*3 11.1 C 1.6 km/h
1436 07-10-2019 23:35:00 11.1 C 9.67 g/m*3 11.1 C 0 km/h
1437 07-10-2019 23:40:00 11.1 C 9.67 g/m*3 11.1 C 0 km/h
1438 07-10-2019 23:45:00 11.1 C 9.67 g/m*3 11.1 C 0 km/h
1439 07-10-2019 23:50:00 11.1 C 9.67 g/m*3 11.1 C 0 km/h
1440 07-10-2019 23:55:00 11.1 C 9.67 g/m*3 11.1 C 0 km/h
1441 08-10-2019 00:00:00 11.1 C 9.67 g/m*3 11.1 C 0 km/h
1442 08-10-2019 00:05:00 11.1 C 9.67 g/m*3 11.1 C 0 km/h
1443 08-10-2019 00:10:00 11.1 C 9.67 g/m*3 11.1 C 0 km/h
1444 08-10-2019 00:15:00 11.1 C 9.67 g/m*3 11.1 C 0 km/h
1445 08-10-2019 00:20:00 11.1 C 9.77 g/m*3 11.1 C 0 km/h
1446 08-10-2019 00:25:00 11.1 C 9.77 g/m*3 11.1 C 0 km/h
1447 08-10-2019 00:30:00 11.1 C 9.77 g/m*3 11.1 C 0 km/h
1448 08-10-2019 00:35:00 11.1 C 9.77 g/m*3 11.1 C 0 km/h
1449 08-10-2019 00:40:00 11.1 C 9.77 g/m*3 11.1 C 0 km/h
1450 08-10-2019 00:45:00 11.1 C 9.77 g/m*3 11.1 C 1.6 km/h
Sensor: Nr:Datum:Temp:Abs-Feuchte:Windchill:Wind:
Aussen-T/F 1451 08-10-2019 00:50:00 11.2 C 9.83 g/m*3 11.2 C 4.8 km/h
1452 08-10-2019 00:55:00 11.2 C 9.83 g/m*3 11.2 C 0 km/h
1453 08-10-2019 01:00:00 11.2 C 9.73 g/m*3 11.2 C 1.6 km/h
1454 08-10-2019 01:05:00 11.2 C 9.73 g/m*3 11.2 C 1.6 km/h
1455 08-10-2019 01:10:00 11.2 C 9.73 g/m*3 11.2 C 0 km/h
1456 08-10-2019 01:15:00 11.2 C 9.73 g/m*3 11.2 C 1.6 km/h
1457 08-10-2019 01:20:00 11.2 C 9.73 g/m*3 11.2 C 0 km/h
1458 08-10-2019 01:25:00 11.2 C 9.73 g/m*3 11.2 C 1.6 km/h
1459 08-10-2019 01:30:00 11.2 C 9.73 g/m*3 11.2 C 1.6 km/h
1460 08-10-2019 01:35:00 11.3 C 9.79 g/m*3 11.3 C 1.6 km/h
1461 08-10-2019 01:40:00 11.3 C 9.79 g/m*3 11.3 C 1.6 km/h
1462 08-10-2019 01:45:00 11.3 C 9.89 g/m*3 11.3 C 0 km/h
1463 08-10-2019 01:50:00 11.3 C 9.89 g/m*3 11.3 C 3.2 km/h
1464 08-10-2019 01:55:00 11.4 C 9.96 g/m*3 11.4 C 1.6 km/h
1465 08-10-2019 02:00:00 11.4 C 9.85 g/m*3 11.4 C 0 km/h
1466 08-10-2019 02:05:00 11.4 C 9.85 g/m*3 11.4 C 0 km/h
1467 08-10-2019 02:10:00 11.4 C 9.85 g/m*3 11.4 C 0 km/h
1468 08-10-2019 02:15:00 11.4 C 9.85 g/m*3 11.4 C 0 km/h
1469 08-10-2019 02:20:00 11.4 C 9.85 g/m*3 11.4 C 0 km/h
1470 08-10-2019 02:25:00 11.4 C 9.85 g/m*3 11.4 C 0 km/h
1471 08-10-2019 02:30:00 11.4 C 9.85 g/m*3 11.4 C 0 km/h
1472 08-10-2019 02:35:00 11.4 C 9.85 g/m*3 11.4 C 1.6 km/h
1473 08-10-2019 02:40:00 11.4 C 9.85 g/m*3 11.4 C 1.6 km/h
1474 08-10-2019 02:45:00 11.5 C 9.92 g/m*3 11.5 C 4.8 km/h
1475 08-10-2019 02:50:00 11.6 C 9.98 g/m*3 11.6 C 0 km/h
Sensor: Nr:Datum:Temp:Abs-Feuchte:Windchill:Wind:
Aussen-T/F 1476 08-10-2019 02:55:00 11.6 C 9.98 g/m*3 11.6 C 3.2 km/h
1477 08-10-2019 03:00:00 11.6 C 9.98 g/m*3 11.6 C 1.6 km/h
1478 08-10-2019 03:05:00 11.7 C 10.04 g/m*3 11.7 C 4.8 km/h
1479 08-10-2019 03:10:00 11.7 C 10.04 g/m*3 11.7 C 8.1 km/h
1480 08-10-2019 03:15:00 11.7 C 10.04 g/m*3 11.7 C 0 km/h
1481 08-10-2019 03:20:00 11.7 C 10.04 g/m*3 11.7 C 1.6 km/h
1482 08-10-2019 03:25:00 11.8 C 10.1 g/m*3 11.8 C 8.1 km/h
1483 08-10-2019 03:30:00 11.8 C 10.1 g/m*3 11.8 C 4.8 km/h
1484 08-10-2019 03:35:00 11.8 C 10.1 g/m*3 11.8 C 1.6 km/h
1485 08-10-2019 03:40:00 11.8 C 10 g/m*3 11.8 C 8.1 km/h
1486 08-10-2019 03:45:00 11.8 C 10.1 g/m*3 11.8 C 0 km/h
1487 08-10-2019 03:50:00 11.8 C 10 g/m*3 11.8 C 4.8 km/h
1488 08-10-2019 03:55:00 11.9 C 10.06 g/m*3 11.9 C 1.6 km/h
1489 08-10-2019 04:00:00 11.9 C 10.06 g/m*3 11.9 C 6.4 km/h
1490 08-10-2019 04:05:00 11.9 C 10.06 g/m*3 11.9 C 0 km/h
1491 08-10-2019 04:10:00 11.9 C 10.06 g/m*3 11.9 C 1.6 km/h
1492 08-10-2019 04:15:00 11.9 C 10.06 g/m*3 11.9 C 3.2 km/h
1493 08-10-2019 04:20:00 11.8 C 10 g/m*3 11.8 C 3.2 km/h
1494 08-10-2019 04:25:00 11.8 C 10 g/m*3 11.8 C 1.6 km/h
1495 08-10-2019 04:30:00 11.9 C 10.06 g/m*3 11.9 C 3.2 km/h
1496 08-10-2019 04:35:00 11.9 C 10.06 g/m*3 11.9 C 9.7 km/h
1497 08-10-2019 04:40:00 11.9 C 9.96 g/m*3 11.9 C 0 km/h
1498 08-10-2019 04:45:00 12 C 10.02 g/m*3 12 C 0 km/h
1499 08-10-2019 04:50:00 11.9 C 9.96 g/m*3 11.9 C 3.2 km/h
1500 08-10-2019 04:55:00 12 C 10.02 g/m*3 12 C 11.3 km/h
Sensor: Nr:Datum:Temp:Abs-Feuchte:Windchill:Wind:
Aussen-T/F 1501 08-10-2019 05:00:00 12 C 10.02 g/m*3 12 C 3.2 km/h
1502 08-10-2019 05:05:00 12.1 C 10.08 g/m*3 12.1 C 6.4 km/h
1503 08-10-2019 05:10:00 12.1 C 9.97 g/m*3 12.1 C 8.1 km/h
1504 08-10-2019 05:15:00 12.2 C 10.04 g/m*3 12.2 C 11.3 km/h
1505 08-10-2019 05:20:00 12.3 C 9.99 g/m*3 12.3 C 9.7 km/h
1506 08-10-2019 05:25:00 12.3 C 9.99 g/m*3 12.3 C 11.3 km/h
1507 08-10-2019 05:30:00 12.4 C 9.94 g/m*3 12.4 C 11.3 km/h
1508 08-10-2019 05:35:00 12.5 C 10 g/m*3 12.5 C 6.4 km/h
1509 08-10-2019 05:40:00 12.5 C 10 g/m*3 12.5 C 4.8 km/h
1510 08-10-2019 05:45:00 12.5 C 10 g/m*3 12.5 C 12.9 km/h
1511 08-10-2019 05:50:00 12.5 C 10 g/m*3 12.5 C 8.1 km/h
1512 08-10-2019 05:55:00 12.4 C 9.94 g/m*3 12.4 C 8.1 km/h
1513 08-10-2019 06:00:00 12.4 C 9.94 g/m*3 12.4 C 9.7 km/h
1514 08-10-2019 06:05:00 12.3 C 9.88 g/m*3 12.3 C 9.7 km/h
1515 08-10-2019 06:10:00 12.3 C 9.99 g/m*3 12.3 C 9.7 km/h
1516 08-10-2019 06:15:00 12.3 C 9.99 g/m*3 12.3 C 9.7 km/h
1517 08-10-2019 06:20:00 12.2 C 9.93 g/m*3 12.2 C 3.2 km/h
1518 08-10-2019 06:25:00 12.2 C 9.93 g/m*3 12.2 C 6.4 km/h
1519 08-10-2019 06:30:00 12.2 C 9.93 g/m*3 12.2 C 0 km/h
1520 08-10-2019 06:35:00 12.2 C 10.04 g/m*3 12.2 C 1.6 km/h
1521 08-10-2019 06:40:00 12.1 C 9.97 g/m*3 12.1 C 0 km/h
1522 08-10-2019 06:45:00 12.1 C 9.97 g/m*3 12.1 C 0 km/h
1523 08-10-2019 06:50:00 12 C 10.02 g/m*3 12 C 1.6 km/h
1524 08-10-2019 06:55:00 11.9 C 9.96 g/m*3 11.9 C 0 km/h
1525 08-10-2019 07:00:00 11.9 C 9.96 g/m*3 11.9 C 0 km/h
Sensor: Nr:Datum:Temp:Abs-Feuchte:Windchill:Wind:
Aussen-T/F 1526 08-10-2019 07:05:00 11.8 C 9.89 g/m*3 11.8 C 1.6 km/h
1527 08-10-2019 07:10:00 11.8 C 9.89 g/m*3 11.8 C 0 km/h
1528 08-10-2019 07:15:00 11.8 C 10 g/m*3 11.8 C 4.8 km/h
1529 08-10-2019 07:20:00 11.8 C 10 g/m*3 11.8 C 6.4 km/h
1530 08-10-2019 07:25:00 11.8 C 10 g/m*3 11.8 C 1.6 km/h
1531 08-10-2019 07:30:00 11.8 C 10 g/m*3 11.8 C 3.2 km/h
1532 08-10-2019 07:35:00 11.8 C 10 g/m*3 11.8 C 6.4 km/h
1533 08-10-2019 07:40:00 11.8 C 10 g/m*3 11.8 C 0 km/h
1534 08-10-2019 07:45:00 11.7 C 9.94 g/m*3 11.7 C 0 km/h
1535 08-10-2019 07:50:00 11.7 C 9.94 g/m*3 11.7 C 4.8 km/h
1536 08-10-2019 07:55:00 11.8 C 10 g/m*3 11.8 C 1.6 km/h
1537 08-10-2019 08:00:00 11.8 C 10 g/m*3 11.8 C 3.2 km/h
1538 08-10-2019 08:05:00 11.8 C 10 g/m*3 11.8 C 8.1 km/h
1539 08-10-2019 08:10:00 11.8 C 10.1 g/m*3 11.8 C 1.6 km/h
1540 08-10-2019 08:15:00 11.8 C 10.1 g/m*3 11.8 C 9.7 km/h
1541 08-10-2019 08:20:00 11.8 C 10.1 g/m*3 11.8 C 6.4 km/h
1542 08-10-2019 08:25:00 11.8 C 10.1 g/m*3 11.8 C 12.9 km/h
1543 08-10-2019 08:30:00 11.8 C 10.1 g/m*3 11.8 C 1.6 km/h
1544 08-10-2019 08:35:00 11.8 C 10.1 g/m*3 11.8 C 6.4 km/h
1545 08-10-2019 08:40:00 11.8 C 10.1 g/m*3 11.8 C 0 km/h
1546 08-10-2019 08:45:00 11.9 C 10.17 g/m*3 11.9 C 9.7 km/h
1547 08-10-2019 08:50:00 11.9 C 10.17 g/m*3 11.9 C 1.6 km/h
1548 08-10-2019 08:55:00 11.9 C 10.17 g/m*3 11.9 C 8.1 km/h
1549 08-10-2019 09:00:00 11.9 C 10.17 g/m*3 11.9 C 6.4 km/h
1550 08-10-2019 09:05:00 11.9 C 10.17 g/m*3 11.9 C 4.8 km/h
Sensor: Nr:Datum:Temp:Abs-Feuchte:Windchill:Wind:
Aussen-T/F 1551 08-10-2019 09:10:00 11.9 C 10.17 g/m*3 11.9 C 4.8 km/h
1552 08-10-2019 09:15:00 11.9 C 10.17 g/m*3 11.9 C 16.1 km/h
1553 08-10-2019 09:20:00 11.9 C 10.17 g/m*3 11.9 C 16.1 km/h
1554 08-10-2019 09:25:00 12 C 10.23 g/m*3 12 C 6.4 km/h
1555 08-10-2019 09:30:00 12.1 C 10.29 g/m*3 12.1 C 4.8 km/h
1556 08-10-2019 09:35:00 12.1 C 10.29 g/m*3 12.1 C 14.5 km/h
1557 08-10-2019 09:40:00 12.1 C 10.29 g/m*3 12.1 C 11.3 km/h
1558 08-10-2019 09:45:00 12.2 C 10.36 g/m*3 12.2 C 14.5 km/h
1559 08-10-2019 09:50:00 12.2 C 10.36 g/m*3 12.2 C 12.9 km/h
1560 08-10-2019 09:55:00 12.2 C 10.36 g/m*3 12.2 C 8.1 km/h
1561 08-10-2019 10:00:00 12.3 C 10.42 g/m*3 12.3 C 11.3 km/h
1562 08-10-2019 10:05:00 12.3 C 10.32 g/m*3 12.3 C 14.5 km/h
1563 08-10-2019 10:10:00 12.3 C 10.32 g/m*3 12.3 C 11.3 km/h
1564 08-10-2019 10:15:00 12.3 C 10.32 g/m*3 12.3 C 12.9 km/h
1565 08-10-2019 10:20:00 12.4 C 10.38 g/m*3 12.4 C 11.3 km/h
1566 08-10-2019 10:25:00 12.4 C 10.38 g/m*3 12.4 C 9.7 km/h
1567 08-10-2019 10:30:00 12.4 C 10.38 g/m*3 12.4 C 8.1 km/h
1568 08-10-2019 10:35:00 12.5 C 10.44 g/m*3 12.5 C 11.3 km/h
1569 08-10-2019 10:40:00 12.6 C 10.51 g/m*3 12.6 C 16.1 km/h
1570 08-10-2019 10:45:00 12.7 C 10.58 g/m*3 12.7 C 14.5 km/h
1571 08-10-2019 10:50:00 12.8 C 10.64 g/m*3 12.8 C 11.3 km/h
1572 08-10-2019 10:55:00 12.9 C 10.71 g/m*3 12.9 C 20.9 km/h
1573 08-10-2019 11:00:00 13 C 10.66 g/m*3 13 C 20.9 km/h
1574 08-10-2019 11:05:00 13.1 C 10.73 g/m*3 13.1 C 12.9 km/h
1575 08-10-2019 11:10:00 13.1 C 10.73 g/m*3 13.1 C 9.7 km/h
Sensor: Nr:Datum:Temp:Abs-Feuchte:Windchill:Wind:
Aussen-T/F 1576 08-10-2019 11:15:00 13.3 C 10.86 g/m*3 13.3 C 14.5 km/h
1577 08-10-2019 11:20:00 13.4 C 10.93 g/m*3 13.4 C 11.3 km/h
1578 08-10-2019 11:25:00 13.6 C 10.95 g/m*3 13.6 C 11.3 km/h
1579 08-10-2019 11:30:00 13.6 C 10.95 g/m*3 13.6 C 9.7 km/h
1580 08-10-2019 11:35:00 13.7 C 11.01 g/m*3 13.7 C 12.9 km/h
1581 08-10-2019 11:40:00 13.8 C 10.96 g/m*3 13.8 C 16.1 km/h
1582 08-10-2019 11:45:00 13.8 C 10.96 g/m*3 13.8 C 17.7 km/h
1583 08-10-2019 11:50:00 13.8 C 10.96 g/m*3 13.8 C 16.1 km/h
1584 08-10-2019 11:55:00 13.8 C 10.96 g/m*3 13.8 C 11.3 km/h
1585 08-10-2019 12:00:00 13.8 C 10.96 g/m*3 13.8 C 14.5 km/h
1586 08-10-2019 12:05:00 13.8 C 10.96 g/m*3 13.8 C 14.5 km/h
1587 08-10-2019 12:10:00 13.8 C 10.96 g/m*3 13.8 C 11.3 km/h
1588 08-10-2019 12:15:00 13.8 C 10.96 g/m*3 13.8 C 16.1 km/h
1589 08-10-2019 12:20:00 13.8 C 10.96 g/m*3 13.8 C 19.3 km/h
1590 08-10-2019 12:25:00 13.8 C 10.96 g/m*3 13.8 C 19.3 km/h
1591 08-10-2019 12:30:00 13.8 C 10.96 g/m*3 13.8 C 14.5 km/h
1592 08-10-2019 12:35:00 13.8 C 10.84 g/m*3 13.8 C 11.3 km/h
1593 08-10-2019 12:40:00 13.9 C 10.91 g/m*3 13.9 C 14.5 km/h
1594 08-10-2019 12:45:00 13.9 C 10.91 g/m*3 13.9 C 14.5 km/h
1595 08-10-2019 12:50:00 14 C 10.98 g/m*3 14 C 8.1 km/h
1596 08-10-2019 12:55:00 14.1 C 11.04 g/m*3 14.1 C 14.5 km/h
1597 08-10-2019 13:00:00 14.1 C 11.04 g/m*3 14.1 C 12.9 km/h
1598 08-10-2019 13:05:00 14.1 C 11.04 g/m*3 14.1 C 12.9 km/h
1599 08-10-2019 13:10:00 14.2 C 11.11 g/m*3 14.2 C 14.5 km/h
1600 08-10-2019 13:15:00 14.2 C 11.11 g/m*3 14.2 C 11.3 km/h
Sensor: Nr:Datum:Temp:Abs-Feuchte:Windchill:Wind:
Aussen-T/F 1601 08-10-2019 13:20:00 14.2 C 11.11 g/m*3 14.2 C 17.7 km/h
1602 08-10-2019 13:25:00 14.2 C 11.23 g/m*3 14.2 C 9.7 km/h
1603 08-10-2019 13:30:00 14.2 C 11.23 g/m*3 14.2 C 6.4 km/h
1604 08-10-2019 13:35:00 14.3 C 11.3 g/m*3 14.3 C 4.8 km/h
1605 08-10-2019 13:40:00 14.2 C 11.11 g/m*3 14.2 C 9.7 km/h
1606 08-10-2019 13:45:00 14.3 C 11.3 g/m*3 14.3 C 4.8 km/h
1607 08-10-2019 13:50:00 14.3 C 11.3 g/m*3 14.3 C 4.8 km/h
1608 08-10-2019 13:55:00 14.4 C 11.37 g/m*3 14.4 C 9.7 km/h
1609 08-10-2019 14:00:00 14.4 C 11.37 g/m*3 14.4 C 8.1 km/h
1610 08-10-2019 14:05:00 14.4 C 11.25 g/m*3 14.4 C 14.5 km/h
1611 08-10-2019 14:10:00 14.5 C 11.44 g/m*3 14.5 C 11.3 km/h
1612 08-10-2019 14:15:00 14.6 C 11.51 g/m*3 14.6 C 6.4 km/h
1613 08-10-2019 14:20:00 14.6 C 11.51 g/m*3 14.6 C 6.4 km/h
1614 08-10-2019 14:25:00 14.6 C 11.39 g/m*3 14.6 C 12.9 km/h
1615 08-10-2019 14:30:00 14.6 C 11.39 g/m*3 14.6 C 8.1 km/h
1616 08-10-2019 14:35:00 14.7 C 11.46 g/m*3 14.7 C 6.4 km/h
1617 08-10-2019 14:40:00 14.7 C 11.46 g/m*3 14.7 C 12.9 km/h
1618 08-10-2019 14:45:00 14.7 C 11.46 g/m*3 14.7 C 12.9 km/h
1619 08-10-2019 14:50:00 14.7 C 11.46 g/m*3 14.7 C 8.1 km/h
1620 08-10-2019 14:55:00 14.7 C 11.46 g/m*3 14.7 C 12.9 km/h
1621 08-10-2019 15:00:00 14.7 C 11.46 g/m*3 14.7 C 12.9 km/h
1622 08-10-2019 15:05:00 14.6 C 11.39 g/m*3 14.6 C 9.7 km/h
1623 08-10-2019 15:10:00 14.6 C 11.39 g/m*3 14.6 C 17.7 km/h
1624 08-10-2019 15:15:00 14.6 C 11.39 g/m*3 14.6 C 9.7 km/h
1625 08-10-2019 15:20:00 14.6 C 11.51 g/m*3 14.6 C 8.1 km/h
Sensor: Nr:Datum:Temp:Abs-Feuchte:Windchill:Wind:
Aussen-T/F 1626 08-10-2019 15:25:00 14.6 C 11.51 g/m*3 14.6 C 8.1 km/h
1627 08-10-2019 15:30:00 14.5 C 11.57 g/m*3 14.5 C 4.8 km/h
1628 08-10-2019 15:35:00 14.4 C 11.5 g/m*3 14.4 C 11.3 km/h
1629 08-10-2019 15:40:00 14.3 C 11.43 g/m*3 14.3 C 11.3 km/h
1630 08-10-2019 15:45:00 14.3 C 11.43 g/m*3 14.3 C 8.1 km/h
1631 08-10-2019 15:50:00 14.3 C 11.55 g/m*3 14.3 C 1.6 km/h
1632 08-10-2019 15:55:00 14.3 C 11.55 g/m*3 14.3 C 11.3 km/h
1633 08-10-2019 16:00:00 14.3 C 11.55 g/m*3 14.3 C 6.4 km/h
1634 08-10-2019 16:05:00 14.3 C 11.55 g/m*3 14.3 C 8.1 km/h
1635 08-10-2019 16:10:00 14.3 C 11.55 g/m*3 14.3 C 3.2 km/h
1636 08-10-2019 16:15:00 14.3 C 11.55 g/m*3 14.3 C 4.8 km/h
1637 08-10-2019 16:20:00 14.2 C 11.48 g/m*3 14.2 C 6.4 km/h
1638 08-10-2019 16:25:00 14.2 C 11.48 g/m*3 14.2 C 11.3 km/h
1639 08-10-2019 16:30:00 14.2 C 11.6 g/m*3 14.2 C 8.1 km/h
1640 08-10-2019 16:35:00 14.2 C 11.6 g/m*3 14.2 C 8.1 km/h
1641 08-10-2019 16:40:00 14.2 C 11.6 g/m*3 14.2 C 6.4 km/h
1642 08-10-2019 16:45:00 14.2 C 11.6 g/m*3 14.2 C 4.8 km/h
1643 08-10-2019 16:50:00 14.2 C 11.6 g/m*3 14.2 C 8.1 km/h
1644 08-10-2019 16:55:00 14.1 C 11.53 g/m*3 14.1 C 4.8 km/h
1645 08-10-2019 17:00:00 14.1 C 11.53 g/m*3 14.1 C 9.7 km/h
1646 08-10-2019 17:05:00 14.1 C 11.53 g/m*3 14.1 C 9.7 km/h
1647 08-10-2019 17:10:00 14.1 C 11.53 g/m*3 14.1 C 1.6 km/h
1648 08-10-2019 17:15:00 14.1 C 11.53 g/m*3 14.1 C 1.6 km/h
1649 08-10-2019 17:20:00 14.1 C 11.53 g/m*3 14.1 C 3.2 km/h
1650 08-10-2019 17:25:00 14 C 11.46 g/m*3 14 C 4.8 km/h
Sensor: Nr:Datum:Temp:Abs-Feuchte:Windchill:Wind:
Aussen-T/F 1651 08-10-2019 17:30:00 14.1 C 11.53 g/m*3 14.1 C 1.6 km/h
1652 08-10-2019 17:35:00 14.1 C 11.65 g/m*3 14.1 C 1.6 km/h
1653 08-10-2019 17:40:00 14.1 C 11.65 g/m*3 14.1 C 1.6 km/h
1654 08-10-2019 17:45:00 14 C 11.58 g/m*3 14 C 3.2 km/h
1655 08-10-2019 17:50:00 14 C 11.58 g/m*3 14 C 3.2 km/h
1656 08-10-2019 17:55:00 13.9 C 11.51 g/m*3 13.9 C 1.6 km/h
1657 08-10-2019 18:00:00 13.9 C 11.51 g/m*3 13.9 C 1.6 km/h
1658 08-10-2019 18:05:00 13.9 C 11.51 g/m*3 13.9 C 8.1 km/h
1659 08-10-2019 18:10:00 13.9 C 11.51 g/m*3 13.9 C 4.8 km/h
1660 08-10-2019 18:15:00 13.9 C 11.51 g/m*3 13.9 C 8.1 km/h
1661 08-10-2019 18:20:00 13.9 C 11.51 g/m*3 13.9 C 3.2 km/h
1662 08-10-2019 18:25:00 13.9 C 11.51 g/m*3 13.9 C 9.7 km/h
1663 08-10-2019 18:30:00 13.9 C 11.51 g/m*3 13.9 C 0 km/h
1664 08-10-2019 18:35:00 13.9 C 11.51 g/m*3 13.9 C 0 km/h
1665 08-10-2019 18:40:00 13.8 C 11.44 g/m*3 13.8 C 0 km/h
1666 08-10-2019 18:45:00 13.8 C 11.44 g/m*3 13.8 C 0 km/h
1667 08-10-2019 18:50:00 13.8 C 11.44 g/m*3 13.8 C 0 km/h
1668 08-10-2019 18:55:00 13.8 C 11.44 g/m*3 13.8 C 1.6 km/h
1669 08-10-2019 19:00:00 13.7 C 11.37 g/m*3 13.7 C 3.2 km/h
1670 08-10-2019 19:05:00 13.8 C 11.44 g/m*3 13.8 C 6.4 km/h
1671 08-10-2019 19:10:00 13.8 C 11.44 g/m*3 13.8 C 8.1 km/h
1672 08-10-2019 19:15:00 13.8 C 11.44 g/m*3 13.8 C 1.6 km/h
1673 08-10-2019 19:20:00 13.8 C 11.44 g/m*3 13.8 C 3.2 km/h
1674 08-10-2019 19:25:00 13.8 C 11.44 g/m*3 13.8 C 0 km/h
1675 08-10-2019 19:30:00 13.8 C 11.44 g/m*3 13.8 C 0 km/h
Sensor: Nr:Datum:Temp:Abs-Feuchte:Windchill:Wind:
Aussen-T/F 1676 08-10-2019 19:35:00 13.8 C 11.44 g/m*3 13.8 C 0 km/h
1677 08-10-2019 19:40:00 13.8 C 11.44 g/m*3 13.8 C 0 km/h
1678 08-10-2019 19:45:00 13.8 C 11.44 g/m*3 13.8 C 0 km/h
1679 08-10-2019 19:50:00 13.8 C 11.44 g/m*3 13.8 C 0 km/h
1680 08-10-2019 19:55:00 13.8 C 11.44 g/m*3 13.8 C 0 km/h
1681 08-10-2019 20:00:00 13.7 C 11.37 g/m*3 13.7 C 1.6 km/h
1682 08-10-2019 20:05:00 13.6 C 11.3 g/m*3 13.6 C 0 km/h
1683 08-10-2019 20:10:00 13.6 C 11.3 g/m*3 13.6 C 3.2 km/h
1684 08-10-2019 20:15:00 13.6 C 11.3 g/m*3 13.6 C 1.6 km/h
1685 08-10-2019 20:20:00 13.6 C 11.3 g/m*3 13.6 C 0 km/h
1686 08-10-2019 20:25:00 13.6 C 11.3 g/m*3 13.6 C 0 km/h
1687 08-10-2019 20:30:00 13.6 C 11.3 g/m*3 13.6 C 0 km/h
1688 08-10-2019 20:35:00 13.6 C 11.42 g/m*3 13.6 C 0 km/h
1689 08-10-2019 20:40:00 13.5 C 11.35 g/m*3 13.5 C 0 km/h
1690 08-10-2019 20:45:00 13.4 C 11.28 g/m*3 13.4 C 0 km/h
1691 08-10-2019 20:50:00 13.4 C 11.28 g/m*3 13.4 C 0 km/h
1692 08-10-2019 20:55:00 13.4 C 11.16 g/m*3 13.4 C 0 km/h
1693 08-10-2019 21:00:00 13.3 C 11.09 g/m*3 13.3 C 0 km/h
1694 08-10-2019 21:05:00 13.3 C 11.09 g/m*3 13.3 C 0 km/h
1695 08-10-2019 21:10:00 13.3 C 11.21 g/m*3 13.3 C 0 km/h
1696 08-10-2019 21:15:00 13.3 C 11.21 g/m*3 13.3 C 0 km/h
1697 08-10-2019 21:20:00 13.3 C 11.21 g/m*3 13.3 C 0 km/h
1698 08-10-2019 21:25:00 13.3 C 11.21 g/m*3 13.3 C 0 km/h
1699 08-10-2019 21:30:00 13.2 C 11.14 g/m*3 13.2 C 0 km/h
1700 08-10-2019 21:35:00 13.2 C 11.14 g/m*3 13.2 C 0 km/h
Sensor: Nr:Datum:Temp:Abs-Feuchte:Windchill:Wind:
Aussen-T/F 1701 08-10-2019 21:40:00 13.2 C 11.14 g/m*3 13.2 C 0 km/h
1702 08-10-2019 21:45:00 13.1 C 11.07 g/m*3 13.1 C 0 km/h
1703 08-10-2019 21:50:00 13.1 C 11.07 g/m*3 13.1 C 0 km/h
1704 08-10-2019 21:55:00 13.1 C 11.07 g/m*3 13.1 C 1.6 km/h
1705 08-10-2019 22:00:00 13.1 C 11.07 g/m*3 13.1 C 0 km/h
1706 08-10-2019 22:05:00 13 C 11 g/m*3 13 C 0 km/h
1707 08-10-2019 22:10:00 13 C 11 g/m*3 13 C 0 km/h
1708 08-10-2019 22:15:00 13 C 11 g/m*3 13 C 0 km/h
1709 08-10-2019 22:20:00 12.9 C 10.93 g/m*3 12.9 C 0 km/h
1710 08-10-2019 22:25:00 12.9 C 10.93 g/m*3 12.9 C 0 km/h
1711 08-10-2019 22:30:00 12.8 C 10.87 g/m*3 12.8 C 0 km/h
1712 08-10-2019 22:35:00 12.8 C 10.87 g/m*3 12.8 C 0 km/h
1713 08-10-2019 22:40:00 12.7 C 10.8 g/m*3 12.7 C 0 km/h
1714 08-10-2019 22:45:00 12.7 C 10.8 g/m*3 12.7 C 0 km/h
1715 08-10-2019 22:50:00 12.6 C 10.73 g/m*3 12.6 C 0 km/h
1716 08-10-2019 22:55:00 12.4 C 10.6 g/m*3 12.4 C 0 km/h
1717 08-10-2019 23:00:00 12.2 C 10.36 g/m*3 12.2 C 0 km/h
1718 08-10-2019 23:05:00 12.1 C 10.29 g/m*3 12.1 C 1.6 km/h
1719 08-10-2019 23:10:00 12 C 10.23 g/m*3 12 C 0 km/h
1720 08-10-2019 23:15:00 11.8 C 10.1 g/m*3 11.8 C 0 km/h
1721 08-10-2019 23:20:00 11.7 C 10.04 g/m*3 11.7 C 0 km/h
1722 08-10-2019 23:25:00 11.7 C 10.04 g/m*3 11.7 C 0 km/h
1723 08-10-2019 23:30:00 11.6 C 9.98 g/m*3 11.6 C 1.6 km/h
1724 08-10-2019 23:35:00 11.6 C 9.98 g/m*3 11.6 C 1.6 km/h
1725 08-10-2019 23:40:00 11.5 C 9.92 g/m*3 11.5 C 1.6 km/h
Sensor: Nr:Datum:Temp:Abs-Feuchte:Windchill:Wind:
Aussen-T/F 1726 08-10-2019 23:45:00 11.4 C 9.96 g/m*3 11.4 C 0 km/h
1727 08-10-2019 23:50:00 11.3 C 9.89 g/m*3 11.3 C 0 km/h
1728 08-10-2019 23:55:00 11.3 C 9.79 g/m*3 11.3 C 0 km/h

Legende:
   Min
   Max


Maximal/Minimal-Werte vom 23.02.2003 - 09.10.2019

Sensor Min Max Avg
Temp
(Aussen-T/F)
-16.4 °C
20-12-2009  01:30:01
40.4 °C
25-07-2019  16:20:00
11.28 °C

Die Daten stammen von einer Davis Vantage Pro 2 Wetter-Station und werden unter Linux mit der Software wview2wettercgi und aufbereitet. Alle Angaben erfolgen ohne Gewähr für ihre Vollständigkeit oder Richtigkeit.
Kontakt: Rainer Krienke krienke@uni-koblenz.de . Meine Webseiten an der Uni Koblenz oder privat.
Version: $Revision: 0.78 $